<?xml version="1.0" encoding="UTF-8"?>
<gpx version="1.1" creator="https://www.youtrack.es" xsi:schemaLocation="http://www.topografix.com/GPX/1/1 http://www.topografix.com/GPX/1/1/gpx.xsd http://www.garmin.com/xmlschemas/GpxExtensions/v3 http://www.garmin.com/xmlschemas/GpxExtensionsv3.xsd http://www.garmin.com/xmlschemas/TrackPointExtension/v1 http://www.garmin.com/xmlschemas/TrackPointExtensionv1.xsd" xmlns:gpxtpx="http://www.garmin.com/xmlschemas/TrackPointExtension/v1" xmlns:gpxx="http://www.garmin.com/xmlschemas/GpxExtensions/v3" xmlns:xsi="http://www.w3.org/2001/XMLSchema-instance">
  <metadata>
    <link href="https://www.youtrack.es">
      <text>YouTrack.es</text>
    </link>
    <time>2026-05-10T12:11:18Z</time>
  </metadata>
  <trk>
    <src>https://www.youtrack.es</src>
    <link href="https://www.youtrack.es/ruta/8130-caminata">
      <text>YouTrack.es</text>
    </link>
    <trkseg>
      <trkpt lat="36.7327140" lon="-4.4908540">
        <ele>80.4</ele>
        <time>2019-09-05T18:44:46Z</time>
      </trkpt>
      <trkpt lat="36.7324920" lon="-4.4904870">
        <ele>81.6</ele>
        <time>2019-09-05T18:44:47Z</time>
      </trkpt>
      <trkpt lat="36.7324790" lon="-4.4905230">
        <ele>81.5</ele>
        <time>2019-09-05T18:44:50Z</time>
      </trkpt>
      <trkpt lat="36.7324480" lon="-4.4905300">
        <ele>81.4</ele>
        <time>2019-09-05T18:44:58Z</time>
      </trkpt>
      <trkpt lat="36.7324150" lon="-4.4905070">
        <ele>81.4</ele>
        <time>2019-09-05T18:45:01Z</time>
      </trkpt>
      <trkpt lat="36.7323870" lon="-4.4904930">
        <ele>81.4</ele>
        <time>2019-09-05T18:45:04Z</time>
      </trkpt>
      <trkpt lat="36.7323510" lon="-4.4904880">
        <ele>81.3</ele>
        <time>2019-09-05T18:45:07Z</time>
      </trkpt>
      <trkpt lat="36.7323190" lon="-4.4904910">
        <ele>81.2</ele>
        <time>2019-09-05T18:45:10Z</time>
      </trkpt>
      <trkpt lat="36.7322910" lon="-4.4904830">
        <ele>81.1</ele>
        <time>2019-09-05T18:45:13Z</time>
      </trkpt>
      <trkpt lat="36.7322580" lon="-4.4904810">
        <ele>81.0</ele>
        <time>2019-09-05T18:45:21Z</time>
      </trkpt>
      <trkpt lat="36.7322320" lon="-4.4904700">
        <ele>80.9</ele>
        <time>2019-09-05T18:45:27Z</time>
      </trkpt>
      <trkpt lat="36.7322340" lon="-4.4904260">
        <ele>80.9</ele>
        <time>2019-09-05T18:45:31Z</time>
      </trkpt>
      <trkpt lat="36.7322390" lon="-4.4903850">
        <ele>80.9</ele>
        <time>2019-09-05T18:45:33Z</time>
      </trkpt>
      <trkpt lat="36.7322500" lon="-4.4903410">
        <ele>80.9</ele>
        <time>2019-09-05T18:45:36Z</time>
      </trkpt>
      <trkpt lat="36.7322610" lon="-4.4902980">
        <ele>81.0</ele>
        <time>2019-09-05T18:45:39Z</time>
      </trkpt>
      <trkpt lat="36.7322710" lon="-4.4902500">
        <ele>81.0</ele>
        <time>2019-09-05T18:45:42Z</time>
      </trkpt>
      <trkpt lat="36.7322790" lon="-4.4902120">
        <ele>81.0</ele>
        <time>2019-09-05T18:45:44Z</time>
      </trkpt>
      <trkpt lat="36.7322930" lon="-4.4901750">
        <ele>81.0</ele>
        <time>2019-09-05T18:45:46Z</time>
      </trkpt>
      <trkpt lat="36.7323080" lon="-4.4901350">
        <ele>81.0</ele>
        <time>2019-09-05T18:45:49Z</time>
      </trkpt>
      <trkpt lat="36.7323170" lon="-4.4900920">
        <ele>81.1</ele>
        <time>2019-09-05T18:45:53Z</time>
      </trkpt>
      <trkpt lat="36.7323250" lon="-4.4900580">
        <ele>81.1</ele>
        <time>2019-09-05T18:45:56Z</time>
      </trkpt>
      <trkpt lat="36.7323380" lon="-4.4900210">
        <ele>81.1</ele>
        <time>2019-09-05T18:45:59Z</time>
      </trkpt>
      <trkpt lat="36.7323470" lon="-4.4899800">
        <ele>81.1</ele>
        <time>2019-09-05T18:46:02Z</time>
      </trkpt>
      <trkpt lat="36.7323560" lon="-4.4899400">
        <ele>81.1</ele>
        <time>2019-09-05T18:46:04Z</time>
      </trkpt>
      <trkpt lat="36.7323660" lon="-4.4899040">
        <ele>81.1</ele>
        <time>2019-09-05T18:46:06Z</time>
      </trkpt>
      <trkpt lat="36.7323800" lon="-4.4898640">
        <ele>81.1</ele>
        <time>2019-09-05T18:46:09Z</time>
      </trkpt>
      <trkpt lat="36.7323910" lon="-4.4898270">
        <ele>81.7</ele>
        <time>2019-09-05T18:46:16Z</time>
      </trkpt>
      <trkpt lat="36.7323860" lon="-4.4897900">
        <ele>81.9</ele>
        <time>2019-09-05T18:46:18Z</time>
      </trkpt>
      <trkpt lat="36.7323660" lon="-4.4897530">
        <ele>82.0</ele>
        <time>2019-09-05T18:46:20Z</time>
      </trkpt>
      <trkpt lat="36.7323450" lon="-4.4897240">
        <ele>82.2</ele>
        <time>2019-09-05T18:46:22Z</time>
      </trkpt>
      <trkpt lat="36.7323100" lon="-4.4896980">
        <ele>82.4</ele>
        <time>2019-09-05T18:46:25Z</time>
      </trkpt>
      <trkpt lat="36.7322830" lon="-4.4896680">
        <ele>82.6</ele>
        <time>2019-09-05T18:46:28Z</time>
      </trkpt>
      <trkpt lat="36.7322630" lon="-4.4896280">
        <ele>82.8</ele>
        <time>2019-09-05T18:46:30Z</time>
      </trkpt>
      <trkpt lat="36.7322550" lon="-4.4895910">
        <ele>83.3</ele>
        <time>2019-09-05T18:46:33Z</time>
      </trkpt>
      <trkpt lat="36.7322450" lon="-4.4895570">
        <ele>83.4</ele>
        <time>2019-09-05T18:46:36Z</time>
      </trkpt>
      <trkpt lat="36.7322330" lon="-4.4895220">
        <ele>83.4</ele>
        <time>2019-09-05T18:46:39Z</time>
      </trkpt>
      <trkpt lat="36.7322120" lon="-4.4894940">
        <ele>83.4</ele>
        <time>2019-09-05T18:46:42Z</time>
      </trkpt>
      <trkpt lat="36.7321910" lon="-4.4894710">
        <ele>83.5</ele>
        <time>2019-09-05T18:46:45Z</time>
      </trkpt>
      <trkpt lat="36.7321600" lon="-4.4894450">
        <ele>83.6</ele>
        <time>2019-09-05T18:46:48Z</time>
      </trkpt>
      <trkpt lat="36.7321310" lon="-4.4894380">
        <ele>83.7</ele>
        <time>2019-09-05T18:46:53Z</time>
      </trkpt>
      <trkpt lat="36.7321010" lon="-4.4894250">
        <ele>83.8</ele>
        <time>2019-09-05T18:46:56Z</time>
      </trkpt>
      <trkpt lat="36.7320640" lon="-4.4894190">
        <ele>83.8</ele>
        <time>2019-09-05T18:46:59Z</time>
      </trkpt>
      <trkpt lat="36.7320310" lon="-4.4894190">
        <ele>83.9</ele>
        <time>2019-09-05T18:47:01Z</time>
      </trkpt>
      <trkpt lat="36.7319990" lon="-4.4894240">
        <ele>84.0</ele>
        <time>2019-09-05T18:47:03Z</time>
      </trkpt>
      <trkpt lat="36.7319690" lon="-4.4894130">
        <ele>84.0</ele>
        <time>2019-09-05T18:47:05Z</time>
      </trkpt>
      <trkpt lat="36.7319310" lon="-4.4894190">
        <ele>84.0</ele>
        <time>2019-09-05T18:47:08Z</time>
      </trkpt>
      <trkpt lat="36.7319020" lon="-4.4894170">
        <ele>84.1</ele>
        <time>2019-09-05T18:47:11Z</time>
      </trkpt>
      <trkpt lat="36.7318720" lon="-4.4894080">
        <ele>84.1</ele>
        <time>2019-09-05T18:47:14Z</time>
      </trkpt>
      <trkpt lat="36.7318340" lon="-4.4894020">
        <ele>84.1</ele>
        <time>2019-09-05T18:47:17Z</time>
      </trkpt>
      <trkpt lat="36.7318020" lon="-4.4893920">
        <ele>84.1</ele>
        <time>2019-09-05T18:47:19Z</time>
      </trkpt>
      <trkpt lat="36.7317620" lon="-4.4893840">
        <ele>84.2</ele>
        <time>2019-09-05T18:47:22Z</time>
      </trkpt>
      <trkpt lat="36.7317300" lon="-4.4893770">
        <ele>84.2</ele>
        <time>2019-09-05T18:47:24Z</time>
      </trkpt>
      <trkpt lat="36.7317020" lon="-4.4893670">
        <ele>84.2</ele>
        <time>2019-09-05T18:47:26Z</time>
      </trkpt>
      <trkpt lat="36.7316750" lon="-4.4893590">
        <ele>84.2</ele>
        <time>2019-09-05T18:47:28Z</time>
      </trkpt>
      <trkpt lat="36.7316480" lon="-4.4893500">
        <ele>84.2</ele>
        <time>2019-09-05T18:47:31Z</time>
      </trkpt>
      <trkpt lat="36.7316170" lon="-4.4893400">
        <ele>84.2</ele>
        <time>2019-09-05T18:47:34Z</time>
      </trkpt>
      <trkpt lat="36.7315880" lon="-4.4893260">
        <ele>84.2</ele>
        <time>2019-09-05T18:47:37Z</time>
      </trkpt>
      <trkpt lat="36.7315550" lon="-4.4893170">
        <ele>84.2</ele>
        <time>2019-09-05T18:47:40Z</time>
      </trkpt>
      <trkpt lat="36.7315220" lon="-4.4893080">
        <ele>84.2</ele>
        <time>2019-09-05T18:47:43Z</time>
      </trkpt>
      <trkpt lat="36.7314920" lon="-4.4893080">
        <ele>84.2</ele>
        <time>2019-09-05T18:47:45Z</time>
      </trkpt>
      <trkpt lat="36.7314610" lon="-4.4893050">
        <ele>84.2</ele>
        <time>2019-09-05T18:47:47Z</time>
      </trkpt>
      <trkpt lat="36.7314240" lon="-4.4892990">
        <ele>84.2</ele>
        <time>2019-09-05T18:47:49Z</time>
      </trkpt>
      <trkpt lat="36.7313950" lon="-4.4892880">
        <ele>84.2</ele>
        <time>2019-09-05T18:47:51Z</time>
      </trkpt>
      <trkpt lat="36.7313560" lon="-4.4892760">
        <ele>84.1</ele>
        <time>2019-09-05T18:47:54Z</time>
      </trkpt>
      <trkpt lat="36.7313280" lon="-4.4892700">
        <ele>84.1</ele>
        <time>2019-09-05T18:47:56Z</time>
      </trkpt>
      <trkpt lat="36.7313010" lon="-4.4892630">
        <ele>84.1</ele>
        <time>2019-09-05T18:47:58Z</time>
      </trkpt>
      <trkpt lat="36.7312750" lon="-4.4892550">
        <ele>84.1</ele>
        <time>2019-09-05T18:48:00Z</time>
      </trkpt>
      <trkpt lat="36.7312470" lon="-4.4892510">
        <ele>84.0</ele>
        <time>2019-09-05T18:48:02Z</time>
      </trkpt>
      <trkpt lat="36.7312110" lon="-4.4892460">
        <ele>84.0</ele>
        <time>2019-09-05T18:48:05Z</time>
      </trkpt>
      <trkpt lat="36.7311840" lon="-4.4892420">
        <ele>84.0</ele>
        <time>2019-09-05T18:48:07Z</time>
      </trkpt>
      <trkpt lat="36.7311500" lon="-4.4892380">
        <ele>83.9</ele>
        <time>2019-09-05T18:48:09Z</time>
      </trkpt>
      <trkpt lat="36.7311120" lon="-4.4892280">
        <ele>83.8</ele>
        <time>2019-09-05T18:48:12Z</time>
      </trkpt>
      <trkpt lat="36.7310730" lon="-4.4892180">
        <ele>83.7</ele>
        <time>2019-09-05T18:48:15Z</time>
      </trkpt>
      <trkpt lat="36.7310440" lon="-4.4892090">
        <ele>83.6</ele>
        <time>2019-09-05T18:48:17Z</time>
      </trkpt>
      <trkpt lat="36.7310100" lon="-4.4892010">
        <ele>83.5</ele>
        <time>2019-09-05T18:48:19Z</time>
      </trkpt>
      <trkpt lat="36.7309780" lon="-4.4891970">
        <ele>83.4</ele>
        <time>2019-09-05T18:48:21Z</time>
      </trkpt>
      <trkpt lat="36.7309460" lon="-4.4891990">
        <ele>83.3</ele>
        <time>2019-09-05T18:48:23Z</time>
      </trkpt>
      <trkpt lat="36.7309150" lon="-4.4891940">
        <ele>83.1</ele>
        <time>2019-09-05T18:48:25Z</time>
      </trkpt>
      <trkpt lat="36.7308850" lon="-4.4891860">
        <ele>83.0</ele>
        <time>2019-09-05T18:48:27Z</time>
      </trkpt>
      <trkpt lat="36.7308570" lon="-4.4891770">
        <ele>82.9</ele>
        <time>2019-09-05T18:48:29Z</time>
      </trkpt>
      <trkpt lat="36.7308300" lon="-4.4891720">
        <ele>82.7</ele>
        <time>2019-09-05T18:48:31Z</time>
      </trkpt>
      <trkpt lat="36.7308000" lon="-4.4891690">
        <ele>82.6</ele>
        <time>2019-09-05T18:48:33Z</time>
      </trkpt>
      <trkpt lat="36.7307640" lon="-4.4891720">
        <ele>82.4</ele>
        <time>2019-09-05T18:48:35Z</time>
      </trkpt>
      <trkpt lat="36.7307320" lon="-4.4891700">
        <ele>82.2</ele>
        <time>2019-09-05T18:48:38Z</time>
      </trkpt>
      <trkpt lat="36.7306980" lon="-4.4891620">
        <ele>82.0</ele>
        <time>2019-09-05T18:48:40Z</time>
      </trkpt>
      <trkpt lat="36.7306640" lon="-4.4891590">
        <ele>81.8</ele>
        <time>2019-09-05T18:48:42Z</time>
      </trkpt>
      <trkpt lat="36.7306370" lon="-4.4891630">
        <ele>81.6</ele>
        <time>2019-09-05T18:48:44Z</time>
      </trkpt>
      <trkpt lat="36.7305990" lon="-4.4891570">
        <ele>81.4</ele>
        <time>2019-09-05T18:48:47Z</time>
      </trkpt>
      <trkpt lat="36.7305670" lon="-4.4891500">
        <ele>81.2</ele>
        <time>2019-09-05T18:48:50Z</time>
      </trkpt>
      <trkpt lat="36.7305340" lon="-4.4891460">
        <ele>81.0</ele>
        <time>2019-09-05T18:48:53Z</time>
      </trkpt>
      <trkpt lat="36.7304990" lon="-4.4891480">
        <ele>80.7</ele>
        <time>2019-09-05T18:48:56Z</time>
      </trkpt>
      <trkpt lat="36.7304670" lon="-4.4891470">
        <ele>80.5</ele>
        <time>2019-09-05T18:48:59Z</time>
      </trkpt>
      <trkpt lat="36.7304240" lon="-4.4891450">
        <ele>80.2</ele>
        <time>2019-09-05T18:49:02Z</time>
      </trkpt>
      <trkpt lat="36.7303950" lon="-4.4891360">
        <ele>80.1</ele>
        <time>2019-09-05T18:49:05Z</time>
      </trkpt>
      <trkpt lat="36.7303600" lon="-4.4891290">
        <ele>79.8</ele>
        <time>2019-09-05T18:49:08Z</time>
      </trkpt>
      <trkpt lat="36.7303310" lon="-4.4891210">
        <ele>79.6</ele>
        <time>2019-09-05T18:49:11Z</time>
      </trkpt>
      <trkpt lat="36.7303000" lon="-4.4891200">
        <ele>79.5</ele>
        <time>2019-09-05T18:49:13Z</time>
      </trkpt>
      <trkpt lat="36.7302730" lon="-4.4891290">
        <ele>79.3</ele>
        <time>2019-09-05T18:49:15Z</time>
      </trkpt>
      <trkpt lat="36.7302310" lon="-4.4891190">
        <ele>79.0</ele>
        <time>2019-09-05T18:49:18Z</time>
      </trkpt>
      <trkpt lat="36.7302040" lon="-4.4891100">
        <ele>78.9</ele>
        <time>2019-09-05T18:49:20Z</time>
      </trkpt>
      <trkpt lat="36.7301770" lon="-4.4890940">
        <ele>78.7</ele>
        <time>2019-09-05T18:49:22Z</time>
      </trkpt>
      <trkpt lat="36.7301450" lon="-4.4890900">
        <ele>78.5</ele>
        <time>2019-09-05T18:49:25Z</time>
      </trkpt>
      <trkpt lat="36.7301020" lon="-4.4890750">
        <ele>78.3</ele>
        <time>2019-09-05T18:49:28Z</time>
      </trkpt>
      <trkpt lat="36.7300630" lon="-4.4890720">
        <ele>78.2</ele>
        <time>2019-09-05T18:49:30Z</time>
      </trkpt>
      <trkpt lat="36.7300290" lon="-4.4890710">
        <ele>78.0</ele>
        <time>2019-09-05T18:49:33Z</time>
      </trkpt>
      <trkpt lat="36.7299970" lon="-4.4890630">
        <ele>77.9</ele>
        <time>2019-09-05T18:49:35Z</time>
      </trkpt>
      <trkpt lat="36.7299650" lon="-4.4890550">
        <ele>77.7</ele>
        <time>2019-09-05T18:49:37Z</time>
      </trkpt>
      <trkpt lat="36.7299290" lon="-4.4890420">
        <ele>77.6</ele>
        <time>2019-09-05T18:49:39Z</time>
      </trkpt>
      <trkpt lat="36.7299000" lon="-4.4890320">
        <ele>77.5</ele>
        <time>2019-09-05T18:49:41Z</time>
      </trkpt>
      <trkpt lat="36.7298720" lon="-4.4890230">
        <ele>77.4</ele>
        <time>2019-09-05T18:49:43Z</time>
      </trkpt>
      <trkpt lat="36.7298340" lon="-4.4890120">
        <ele>77.2</ele>
        <time>2019-09-05T18:49:46Z</time>
      </trkpt>
      <trkpt lat="36.7298080" lon="-4.4890030">
        <ele>77.1</ele>
        <time>2019-09-05T18:49:48Z</time>
      </trkpt>
      <trkpt lat="36.7297740" lon="-4.4889890">
        <ele>77.0</ele>
        <time>2019-09-05T18:49:50Z</time>
      </trkpt>
      <trkpt lat="36.7297340" lon="-4.4889740">
        <ele>76.8</ele>
        <time>2019-09-05T18:49:52Z</time>
      </trkpt>
      <trkpt lat="36.7297010" lon="-4.4889590">
        <ele>76.7</ele>
        <time>2019-09-05T18:49:54Z</time>
      </trkpt>
      <trkpt lat="36.7296660" lon="-4.4889490">
        <ele>76.6</ele>
        <time>2019-09-05T18:49:58Z</time>
      </trkpt>
      <trkpt lat="36.7296370" lon="-4.4889460">
        <ele>76.5</ele>
        <time>2019-09-05T18:50:01Z</time>
      </trkpt>
      <trkpt lat="36.7295990" lon="-4.4889420">
        <ele>76.3</ele>
        <time>2019-09-05T18:50:04Z</time>
      </trkpt>
      <trkpt lat="36.7295710" lon="-4.4889350">
        <ele>76.2</ele>
        <time>2019-09-05T18:50:06Z</time>
      </trkpt>
      <trkpt lat="36.7295400" lon="-4.4889220">
        <ele>76.1</ele>
        <time>2019-09-05T18:50:09Z</time>
      </trkpt>
      <trkpt lat="36.7295050" lon="-4.4889120">
        <ele>75.9</ele>
        <time>2019-09-05T18:50:12Z</time>
      </trkpt>
      <trkpt lat="36.7294710" lon="-4.4889110">
        <ele>75.7</ele>
        <time>2019-09-05T18:50:14Z</time>
      </trkpt>
      <trkpt lat="36.7294410" lon="-4.4889090">
        <ele>75.6</ele>
        <time>2019-09-05T18:50:16Z</time>
      </trkpt>
      <trkpt lat="36.7293980" lon="-4.4889030">
        <ele>75.3</ele>
        <time>2019-09-05T18:50:19Z</time>
      </trkpt>
      <trkpt lat="36.7293690" lon="-4.4889000">
        <ele>75.2</ele>
        <time>2019-09-05T18:50:21Z</time>
      </trkpt>
      <trkpt lat="36.7293400" lon="-4.4888980">
        <ele>75.0</ele>
        <time>2019-09-05T18:50:23Z</time>
      </trkpt>
      <trkpt lat="36.7293140" lon="-4.4888920">
        <ele>74.9</ele>
        <time>2019-09-05T18:50:25Z</time>
      </trkpt>
      <trkpt lat="36.7292860" lon="-4.4888870">
        <ele>74.7</ele>
        <time>2019-09-05T18:50:27Z</time>
      </trkpt>
      <trkpt lat="36.7292470" lon="-4.4888760">
        <ele>74.5</ele>
        <time>2019-09-05T18:50:30Z</time>
      </trkpt>
      <trkpt lat="36.7292190" lon="-4.4888710">
        <ele>74.3</ele>
        <time>2019-09-05T18:50:32Z</time>
      </trkpt>
      <trkpt lat="36.7291890" lon="-4.4888640">
        <ele>74.1</ele>
        <time>2019-09-05T18:50:34Z</time>
      </trkpt>
      <trkpt lat="36.7291460" lon="-4.4888570">
        <ele>73.8</ele>
        <time>2019-09-05T18:50:37Z</time>
      </trkpt>
      <trkpt lat="36.7291180" lon="-4.4888560">
        <ele>73.6</ele>
        <time>2019-09-05T18:50:39Z</time>
      </trkpt>
      <trkpt lat="36.7290850" lon="-4.4888510">
        <ele>73.4</ele>
        <time>2019-09-05T18:50:42Z</time>
      </trkpt>
      <trkpt lat="36.7290380" lon="-4.4888440">
        <ele>73.1</ele>
        <time>2019-09-05T18:50:45Z</time>
      </trkpt>
      <trkpt lat="36.7290080" lon="-4.4888380">
        <ele>73.0</ele>
        <time>2019-09-05T18:50:47Z</time>
      </trkpt>
      <trkpt lat="36.7289700" lon="-4.4888360">
        <ele>72.7</ele>
        <time>2019-09-05T18:50:50Z</time>
      </trkpt>
      <trkpt lat="36.7289370" lon="-4.4888430">
        <ele>72.5</ele>
        <time>2019-09-05T18:50:52Z</time>
      </trkpt>
      <trkpt lat="36.7289050" lon="-4.4888410">
        <ele>72.4</ele>
        <time>2019-09-05T18:50:55Z</time>
      </trkpt>
      <trkpt lat="36.7288670" lon="-4.4888250">
        <ele>72.2</ele>
        <time>2019-09-05T18:50:58Z</time>
      </trkpt>
      <trkpt lat="36.7288330" lon="-4.4888150">
        <ele>72.0</ele>
        <time>2019-09-05T18:51:00Z</time>
      </trkpt>
      <trkpt lat="36.7288020" lon="-4.4888080">
        <ele>71.8</ele>
        <time>2019-09-05T18:51:02Z</time>
      </trkpt>
      <trkpt lat="36.7287730" lon="-4.4888040">
        <ele>71.7</ele>
        <time>2019-09-05T18:51:04Z</time>
      </trkpt>
      <trkpt lat="36.7287410" lon="-4.4888030">
        <ele>71.6</ele>
        <time>2019-09-05T18:51:07Z</time>
      </trkpt>
      <trkpt lat="36.7287030" lon="-4.4887970">
        <ele>71.4</ele>
        <time>2019-09-05T18:51:10Z</time>
      </trkpt>
      <trkpt lat="36.7286710" lon="-4.4887960">
        <ele>71.3</ele>
        <time>2019-09-05T18:51:12Z</time>
      </trkpt>
      <trkpt lat="36.7286320" lon="-4.4887820">
        <ele>71.1</ele>
        <time>2019-09-05T18:51:15Z</time>
      </trkpt>
      <trkpt lat="36.7285980" lon="-4.4887720">
        <ele>71.0</ele>
        <time>2019-09-05T18:51:18Z</time>
      </trkpt>
      <trkpt lat="36.7285630" lon="-4.4887650">
        <ele>70.8</ele>
        <time>2019-09-05T18:51:21Z</time>
      </trkpt>
      <trkpt lat="36.7285300" lon="-4.4887460">
        <ele>70.6</ele>
        <time>2019-09-05T18:51:23Z</time>
      </trkpt>
      <trkpt lat="36.7284970" lon="-4.4887330">
        <ele>70.5</ele>
        <time>2019-09-05T18:51:26Z</time>
      </trkpt>
      <trkpt lat="36.7284610" lon="-4.4887330">
        <ele>70.3</ele>
        <time>2019-09-05T18:51:29Z</time>
      </trkpt>
      <trkpt lat="36.7284290" lon="-4.4887230">
        <ele>70.2</ele>
        <time>2019-09-05T18:51:31Z</time>
      </trkpt>
      <trkpt lat="36.7283990" lon="-4.4887160">
        <ele>70.1</ele>
        <time>2019-09-05T18:51:33Z</time>
      </trkpt>
      <trkpt lat="36.7283660" lon="-4.4887070">
        <ele>69.9</ele>
        <time>2019-09-05T18:51:36Z</time>
      </trkpt>
      <trkpt lat="36.7283380" lon="-4.4887130">
        <ele>69.8</ele>
        <time>2019-09-05T18:51:39Z</time>
      </trkpt>
      <trkpt lat="36.7283090" lon="-4.4887200">
        <ele>69.7</ele>
        <time>2019-09-05T18:51:42Z</time>
      </trkpt>
      <trkpt lat="36.7282750" lon="-4.4887150">
        <ele>69.5</ele>
        <time>2019-09-05T18:51:45Z</time>
      </trkpt>
      <trkpt lat="36.7282480" lon="-4.4887160">
        <ele>69.4</ele>
        <time>2019-09-05T18:51:47Z</time>
      </trkpt>
      <trkpt lat="36.7282190" lon="-4.4887170">
        <ele>69.2</ele>
        <time>2019-09-05T18:51:49Z</time>
      </trkpt>
      <trkpt lat="36.7281900" lon="-4.4887200">
        <ele>69.1</ele>
        <time>2019-09-05T18:51:51Z</time>
      </trkpt>
      <trkpt lat="36.7281530" lon="-4.4887170">
        <ele>68.9</ele>
        <time>2019-09-05T18:51:53Z</time>
      </trkpt>
      <trkpt lat="36.7281150" lon="-4.4887170">
        <ele>68.8</ele>
        <time>2019-09-05T18:51:55Z</time>
      </trkpt>
      <trkpt lat="36.7280790" lon="-4.4887110">
        <ele>68.6</ele>
        <time>2019-09-05T18:51:57Z</time>
      </trkpt>
      <trkpt lat="36.7280450" lon="-4.4887020">
        <ele>68.5</ele>
        <time>2019-09-05T18:51:59Z</time>
      </trkpt>
      <trkpt lat="36.7280060" lon="-4.4886940">
        <ele>68.3</ele>
        <time>2019-09-05T18:52:02Z</time>
      </trkpt>
      <trkpt lat="36.7279740" lon="-4.4886870">
        <ele>68.2</ele>
        <time>2019-09-05T18:52:04Z</time>
      </trkpt>
      <trkpt lat="36.7279470" lon="-4.4886780">
        <ele>68.0</ele>
        <time>2019-09-05T18:52:06Z</time>
      </trkpt>
      <trkpt lat="36.7279100" lon="-4.4886730">
        <ele>67.9</ele>
        <time>2019-09-05T18:52:08Z</time>
      </trkpt>
      <trkpt lat="36.7278810" lon="-4.4886670">
        <ele>67.8</ele>
        <time>2019-09-05T18:52:12Z</time>
      </trkpt>
      <trkpt lat="36.7278470" lon="-4.4886640">
        <ele>67.7</ele>
        <time>2019-09-05T18:52:15Z</time>
      </trkpt>
      <trkpt lat="36.7278200" lon="-4.4886630">
        <ele>67.6</ele>
        <time>2019-09-05T18:52:17Z</time>
      </trkpt>
      <trkpt lat="36.7277870" lon="-4.4886630">
        <ele>67.5</ele>
        <time>2019-09-05T18:52:19Z</time>
      </trkpt>
      <trkpt lat="36.7277580" lon="-4.4886560">
        <ele>67.4</ele>
        <time>2019-09-05T18:52:21Z</time>
      </trkpt>
      <trkpt lat="36.7277220" lon="-4.4886420">
        <ele>67.3</ele>
        <time>2019-09-05T18:52:24Z</time>
      </trkpt>
      <trkpt lat="36.7276860" lon="-4.4886370">
        <ele>67.2</ele>
        <time>2019-09-05T18:52:26Z</time>
      </trkpt>
      <trkpt lat="36.7276410" lon="-4.4886340">
        <ele>67.1</ele>
        <time>2019-09-05T18:52:29Z</time>
      </trkpt>
      <trkpt lat="36.7276080" lon="-4.4886340">
        <ele>67.0</ele>
        <time>2019-09-05T18:52:31Z</time>
      </trkpt>
      <trkpt lat="36.7275770" lon="-4.4886230">
        <ele>67.0</ele>
        <time>2019-09-05T18:52:33Z</time>
      </trkpt>
      <trkpt lat="36.7275460" lon="-4.4886090">
        <ele>66.9</ele>
        <time>2019-09-05T18:52:35Z</time>
      </trkpt>
      <trkpt lat="36.7275170" lon="-4.4886010">
        <ele>66.8</ele>
        <time>2019-09-05T18:52:37Z</time>
      </trkpt>
      <trkpt lat="36.7274900" lon="-4.4885930">
        <ele>66.7</ele>
        <time>2019-09-05T18:52:39Z</time>
      </trkpt>
      <trkpt lat="36.7274590" lon="-4.4885880">
        <ele>66.7</ele>
        <time>2019-09-05T18:52:41Z</time>
      </trkpt>
      <trkpt lat="36.7274180" lon="-4.4885830">
        <ele>66.6</ele>
        <time>2019-09-05T18:52:44Z</time>
      </trkpt>
      <trkpt lat="36.7273800" lon="-4.4885740">
        <ele>66.5</ele>
        <time>2019-09-05T18:52:47Z</time>
      </trkpt>
      <trkpt lat="36.7273530" lon="-4.4885660">
        <ele>66.4</ele>
        <time>2019-09-05T18:52:49Z</time>
      </trkpt>
      <trkpt lat="36.7273220" lon="-4.4885630">
        <ele>66.4</ele>
        <time>2019-09-05T18:52:51Z</time>
      </trkpt>
      <trkpt lat="36.7272840" lon="-4.4885600">
        <ele>66.3</ele>
        <time>2019-09-05T18:52:54Z</time>
      </trkpt>
      <trkpt lat="36.7272500" lon="-4.4885540">
        <ele>66.3</ele>
        <time>2019-09-05T18:52:58Z</time>
      </trkpt>
      <trkpt lat="36.7272190" lon="-4.4885490">
        <ele>66.2</ele>
        <time>2019-09-05T18:53:01Z</time>
      </trkpt>
      <trkpt lat="36.7271780" lon="-4.4885470">
        <ele>66.2</ele>
        <time>2019-09-05T18:53:04Z</time>
      </trkpt>
      <trkpt lat="36.7271390" lon="-4.4885340">
        <ele>66.1</ele>
        <time>2019-09-05T18:53:07Z</time>
      </trkpt>
      <trkpt lat="36.7271080" lon="-4.4885260">
        <ele>66.1</ele>
        <time>2019-09-05T18:53:10Z</time>
      </trkpt>
      <trkpt lat="36.7270800" lon="-4.4885230">
        <ele>66.1</ele>
        <time>2019-09-05T18:53:12Z</time>
      </trkpt>
      <trkpt lat="36.7270430" lon="-4.4885220">
        <ele>66.0</ele>
        <time>2019-09-05T18:53:15Z</time>
      </trkpt>
      <trkpt lat="36.7270020" lon="-4.4885190">
        <ele>66.0</ele>
        <time>2019-09-05T18:53:18Z</time>
      </trkpt>
      <trkpt lat="36.7269750" lon="-4.4885150">
        <ele>66.0</ele>
        <time>2019-09-05T18:53:20Z</time>
      </trkpt>
      <trkpt lat="36.7269410" lon="-4.4885060">
        <ele>66.0</ele>
        <time>2019-09-05T18:53:23Z</time>
      </trkpt>
      <trkpt lat="36.7269030" lon="-4.4884890">
        <ele>66.0</ele>
        <time>2019-09-05T18:53:26Z</time>
      </trkpt>
      <trkpt lat="36.7268740" lon="-4.4884800">
        <ele>65.9</ele>
        <time>2019-09-05T18:53:28Z</time>
      </trkpt>
      <trkpt lat="36.7268460" lon="-4.4884730">
        <ele>65.9</ele>
        <time>2019-09-05T18:53:30Z</time>
      </trkpt>
      <trkpt lat="36.7268190" lon="-4.4884660">
        <ele>65.9</ele>
        <time>2019-09-05T18:53:32Z</time>
      </trkpt>
      <trkpt lat="36.7267880" lon="-4.4884610">
        <ele>65.9</ele>
        <time>2019-09-05T18:53:35Z</time>
      </trkpt>
      <trkpt lat="36.7267440" lon="-4.4884480">
        <ele>65.8</ele>
        <time>2019-09-05T18:53:38Z</time>
      </trkpt>
      <trkpt lat="36.7267090" lon="-4.4884370">
        <ele>65.8</ele>
        <time>2019-09-05T18:53:40Z</time>
      </trkpt>
      <trkpt lat="36.7266770" lon="-4.4884280">
        <ele>65.8</ele>
        <time>2019-09-05T18:53:42Z</time>
      </trkpt>
      <trkpt lat="36.7266480" lon="-4.4884250">
        <ele>65.8</ele>
        <time>2019-09-05T18:53:44Z</time>
      </trkpt>
      <trkpt lat="36.7266200" lon="-4.4884180">
        <ele>65.7</ele>
        <time>2019-09-05T18:53:46Z</time>
      </trkpt>
      <trkpt lat="36.7265850" lon="-4.4884150">
        <ele>65.7</ele>
        <time>2019-09-05T18:53:49Z</time>
      </trkpt>
      <trkpt lat="36.7265540" lon="-4.4884110">
        <ele>65.7</ele>
        <time>2019-09-05T18:53:52Z</time>
      </trkpt>
      <trkpt lat="36.7265250" lon="-4.4884070">
        <ele>65.7</ele>
        <time>2019-09-05T18:53:54Z</time>
      </trkpt>
      <trkpt lat="36.7264970" lon="-4.4883980">
        <ele>65.7</ele>
        <time>2019-09-05T18:53:56Z</time>
      </trkpt>
      <trkpt lat="36.7264700" lon="-4.4883940">
        <ele>65.7</ele>
        <time>2019-09-05T18:53:58Z</time>
      </trkpt>
      <trkpt lat="36.7264400" lon="-4.4883830">
        <ele>65.6</ele>
        <time>2019-09-05T18:54:00Z</time>
      </trkpt>
      <trkpt lat="36.7264130" lon="-4.4883790">
        <ele>65.6</ele>
        <time>2019-09-05T18:54:02Z</time>
      </trkpt>
      <trkpt lat="36.7263720" lon="-4.4883680">
        <ele>65.6</ele>
        <time>2019-09-05T18:54:05Z</time>
      </trkpt>
      <trkpt lat="36.7263390" lon="-4.4883640">
        <ele>65.6</ele>
        <time>2019-09-05T18:54:07Z</time>
      </trkpt>
      <trkpt lat="36.7263100" lon="-4.4883630">
        <ele>65.6</ele>
        <time>2019-09-05T18:54:09Z</time>
      </trkpt>
      <trkpt lat="36.7262700" lon="-4.4883560">
        <ele>65.5</ele>
        <time>2019-09-05T18:54:12Z</time>
      </trkpt>
      <trkpt lat="36.7262380" lon="-4.4883470">
        <ele>65.5</ele>
        <time>2019-09-05T18:54:15Z</time>
      </trkpt>
      <trkpt lat="36.7261970" lon="-4.4883380">
        <ele>65.4</ele>
        <time>2019-09-05T18:54:18Z</time>
      </trkpt>
      <trkpt lat="36.7261680" lon="-4.4883270">
        <ele>65.4</ele>
        <time>2019-09-05T18:54:20Z</time>
      </trkpt>
      <trkpt lat="36.7261320" lon="-4.4883140">
        <ele>65.3</ele>
        <time>2019-09-05T18:54:23Z</time>
      </trkpt>
      <trkpt lat="36.7261040" lon="-4.4883040">
        <ele>65.3</ele>
        <time>2019-09-05T18:54:25Z</time>
      </trkpt>
      <trkpt lat="36.7260690" lon="-4.4882920">
        <ele>65.2</ele>
        <time>2019-09-05T18:54:27Z</time>
      </trkpt>
      <trkpt lat="36.7260290" lon="-4.4882880">
        <ele>65.2</ele>
        <time>2019-09-05T18:54:30Z</time>
      </trkpt>
      <trkpt lat="36.7260000" lon="-4.4882770">
        <ele>65.1</ele>
        <time>2019-09-05T18:54:32Z</time>
      </trkpt>
      <trkpt lat="36.7259710" lon="-4.4882610">
        <ele>65.1</ele>
        <time>2019-09-05T18:54:34Z</time>
      </trkpt>
      <trkpt lat="36.7259460" lon="-4.4882450">
        <ele>65.0</ele>
        <time>2019-09-05T18:54:36Z</time>
      </trkpt>
      <trkpt lat="36.7259150" lon="-4.4882380">
        <ele>65.0</ele>
        <time>2019-09-05T18:54:38Z</time>
      </trkpt>
      <trkpt lat="36.7258790" lon="-4.4882300">
        <ele>64.9</ele>
        <time>2019-09-05T18:54:41Z</time>
      </trkpt>
      <trkpt lat="36.7258470" lon="-4.4882290">
        <ele>64.9</ele>
        <time>2019-09-05T18:54:44Z</time>
      </trkpt>
      <trkpt lat="36.7258170" lon="-4.4882250">
        <ele>64.8</ele>
        <time>2019-09-05T18:54:47Z</time>
      </trkpt>
      <trkpt lat="36.7257850" lon="-4.4882260">
        <ele>64.8</ele>
        <time>2019-09-05T18:54:49Z</time>
      </trkpt>
      <trkpt lat="36.7257550" lon="-4.4882290">
        <ele>64.7</ele>
        <time>2019-09-05T18:54:51Z</time>
      </trkpt>
      <trkpt lat="36.7257180" lon="-4.4882220">
        <ele>64.7</ele>
        <time>2019-09-05T18:54:54Z</time>
      </trkpt>
      <trkpt lat="36.7256880" lon="-4.4882120">
        <ele>64.6</ele>
        <time>2019-09-05T18:54:57Z</time>
      </trkpt>
      <trkpt lat="36.7256530" lon="-4.4881930">
        <ele>64.6</ele>
        <time>2019-09-05T18:55:00Z</time>
      </trkpt>
      <trkpt lat="36.7256210" lon="-4.4881820">
        <ele>64.5</ele>
        <time>2019-09-05T18:55:03Z</time>
      </trkpt>
      <trkpt lat="36.7255890" lon="-4.4881670">
        <ele>64.4</ele>
        <time>2019-09-05T18:55:06Z</time>
      </trkpt>
      <trkpt lat="36.7255610" lon="-4.4881660">
        <ele>64.4</ele>
        <time>2019-09-05T18:55:08Z</time>
      </trkpt>
      <trkpt lat="36.7255190" lon="-4.4881700">
        <ele>64.3</ele>
        <time>2019-09-05T18:55:11Z</time>
      </trkpt>
      <trkpt lat="36.7254910" lon="-4.4881710">
        <ele>64.3</ele>
        <time>2019-09-05T18:55:13Z</time>
      </trkpt>
      <trkpt lat="36.7254530" lon="-4.4881700">
        <ele>64.2</ele>
        <time>2019-09-05T18:55:16Z</time>
      </trkpt>
      <trkpt lat="36.7254240" lon="-4.4881630">
        <ele>64.1</ele>
        <time>2019-09-05T18:55:18Z</time>
      </trkpt>
      <trkpt lat="36.7253910" lon="-4.4881550">
        <ele>64.1</ele>
        <time>2019-09-05T18:55:20Z</time>
      </trkpt>
      <trkpt lat="36.7253560" lon="-4.4881390">
        <ele>64.0</ele>
        <time>2019-09-05T18:55:23Z</time>
      </trkpt>
      <trkpt lat="36.7253260" lon="-4.4881290">
        <ele>64.0</ele>
        <time>2019-09-05T18:55:25Z</time>
      </trkpt>
      <trkpt lat="36.7252920" lon="-4.4881250">
        <ele>63.9</ele>
        <time>2019-09-05T18:55:27Z</time>
      </trkpt>
      <trkpt lat="36.7252640" lon="-4.4881250">
        <ele>63.8</ele>
        <time>2019-09-05T18:55:29Z</time>
      </trkpt>
      <trkpt lat="36.7252370" lon="-4.4881170">
        <ele>63.8</ele>
        <time>2019-09-05T18:55:31Z</time>
      </trkpt>
      <trkpt lat="36.7252050" lon="-4.4881070">
        <ele>63.7</ele>
        <time>2019-09-05T18:55:34Z</time>
      </trkpt>
      <trkpt lat="36.7251630" lon="-4.4880970">
        <ele>63.7</ele>
        <time>2019-09-05T18:55:37Z</time>
      </trkpt>
      <trkpt lat="36.7251370" lon="-4.4880860">
        <ele>63.6</ele>
        <time>2019-09-05T18:55:39Z</time>
      </trkpt>
      <trkpt lat="36.7251070" lon="-4.4880730">
        <ele>63.6</ele>
        <time>2019-09-05T18:55:41Z</time>
      </trkpt>
      <trkpt lat="36.7250800" lon="-4.4880580">
        <ele>63.5</ele>
        <time>2019-09-05T18:55:43Z</time>
      </trkpt>
      <trkpt lat="36.7250470" lon="-4.4880270">
        <ele>63.5</ele>
        <time>2019-09-05T18:55:46Z</time>
      </trkpt>
      <trkpt lat="36.7250370" lon="-4.4879820">
        <ele>63.4</ele>
        <time>2019-09-05T18:55:48Z</time>
      </trkpt>
      <trkpt lat="36.7250380" lon="-4.4879320">
        <ele>63.4</ele>
        <time>2019-09-05T18:55:50Z</time>
      </trkpt>
      <trkpt lat="36.7250420" lon="-4.4878850">
        <ele>63.3</ele>
        <time>2019-09-05T18:55:52Z</time>
      </trkpt>
      <trkpt lat="36.7250420" lon="-4.4878470">
        <ele>63.1</ele>
        <time>2019-09-05T18:55:54Z</time>
      </trkpt>
      <trkpt lat="36.7250430" lon="-4.4877970">
        <ele>63.1</ele>
        <time>2019-09-05T18:55:57Z</time>
      </trkpt>
      <trkpt lat="36.7250470" lon="-4.4877560">
        <ele>63.2</ele>
        <time>2019-09-05T18:55:59Z</time>
      </trkpt>
      <trkpt lat="36.7250270" lon="-4.4877230">
        <ele>63.3</ele>
        <time>2019-09-05T18:56:02Z</time>
      </trkpt>
      <trkpt lat="36.7249980" lon="-4.4876950">
        <ele>63.5</ele>
        <time>2019-09-05T18:56:04Z</time>
      </trkpt>
      <trkpt lat="36.7249640" lon="-4.4876650">
        <ele>63.7</ele>
        <time>2019-09-05T18:56:07Z</time>
      </trkpt>
      <trkpt lat="36.7249350" lon="-4.4876400">
        <ele>63.9</ele>
        <time>2019-09-05T18:56:10Z</time>
      </trkpt>
      <trkpt lat="36.7249210" lon="-4.4876020">
        <ele>63.9</ele>
        <time>2019-09-05T18:56:13Z</time>
      </trkpt>
      <trkpt lat="36.7249280" lon="-4.4875570">
        <ele>64.0</ele>
        <time>2019-09-05T18:56:16Z</time>
      </trkpt>
      <trkpt lat="36.7249240" lon="-4.4875120">
        <ele>64.0</ele>
        <time>2019-09-05T18:56:18Z</time>
      </trkpt>
      <trkpt lat="36.7249220" lon="-4.4874780">
        <ele>64.0</ele>
        <time>2019-09-05T18:56:20Z</time>
      </trkpt>
      <trkpt lat="36.7249310" lon="-4.4874360">
        <ele>64.1</ele>
        <time>2019-09-05T18:56:23Z</time>
      </trkpt>
      <trkpt lat="36.7249330" lon="-4.4873960">
        <ele>64.0</ele>
        <time>2019-09-05T18:56:26Z</time>
      </trkpt>
      <trkpt lat="36.7249070" lon="-4.4873610">
        <ele>64.0</ele>
        <time>2019-09-05T18:56:32Z</time>
      </trkpt>
      <trkpt lat="36.7248760" lon="-4.4873370">
        <ele>64.0</ele>
        <time>2019-09-05T18:56:34Z</time>
      </trkpt>
      <trkpt lat="36.7248370" lon="-4.4873120">
        <ele>64.0</ele>
        <time>2019-09-05T18:56:36Z</time>
      </trkpt>
      <trkpt lat="36.7248080" lon="-4.4872890">
        <ele>63.9</ele>
        <time>2019-09-05T18:56:37Z</time>
      </trkpt>
      <trkpt lat="36.7247830" lon="-4.4872630">
        <ele>63.9</ele>
        <time>2019-09-05T18:56:39Z</time>
      </trkpt>
      <trkpt lat="36.7247540" lon="-4.4872300">
        <ele>63.9</ele>
        <time>2019-09-05T18:56:41Z</time>
      </trkpt>
      <trkpt lat="36.7247300" lon="-4.4872020">
        <ele>63.9</ele>
        <time>2019-09-05T18:56:44Z</time>
      </trkpt>
      <trkpt lat="36.7247030" lon="-4.4871790">
        <ele>63.9</ele>
        <time>2019-09-05T18:56:47Z</time>
      </trkpt>
      <trkpt lat="36.7246770" lon="-4.4871590">
        <ele>64.2</ele>
        <time>2019-09-05T18:56:50Z</time>
      </trkpt>
      <trkpt lat="36.7246470" lon="-4.4871350">
        <ele>64.2</ele>
        <time>2019-09-05T18:56:53Z</time>
      </trkpt>
      <trkpt lat="36.7246190" lon="-4.4871270">
        <ele>64.2</ele>
        <time>2019-09-05T18:56:55Z</time>
      </trkpt>
      <trkpt lat="36.7245860" lon="-4.4871180">
        <ele>64.4</ele>
        <time>2019-09-05T18:56:58Z</time>
      </trkpt>
      <trkpt lat="36.7245610" lon="-4.4870820">
        <ele>64.5</ele>
        <time>2019-09-05T18:57:01Z</time>
      </trkpt>
      <trkpt lat="36.7245540" lon="-4.4870470">
        <ele>64.6</ele>
        <time>2019-09-05T18:57:03Z</time>
      </trkpt>
      <trkpt lat="36.7245620" lon="-4.4870110">
        <ele>64.7</ele>
        <time>2019-09-05T18:57:05Z</time>
      </trkpt>
      <trkpt lat="36.7245750" lon="-4.4869730">
        <ele>64.8</ele>
        <time>2019-09-05T18:57:08Z</time>
      </trkpt>
      <trkpt lat="36.7246040" lon="-4.4869310">
        <ele>64.9</ele>
        <time>2019-09-05T18:57:11Z</time>
      </trkpt>
      <trkpt lat="36.7246240" lon="-4.4868870">
        <ele>65.0</ele>
        <time>2019-09-05T18:57:14Z</time>
      </trkpt>
      <trkpt lat="36.7246360" lon="-4.4868560">
        <ele>65.1</ele>
        <time>2019-09-05T18:57:16Z</time>
      </trkpt>
      <trkpt lat="36.7246480" lon="-4.4868180">
        <ele>65.2</ele>
        <time>2019-09-05T18:57:19Z</time>
      </trkpt>
      <trkpt lat="36.7246510" lon="-4.4867750">
        <ele>65.3</ele>
        <time>2019-09-05T18:57:23Z</time>
      </trkpt>
      <trkpt lat="36.7246580" lon="-4.4867410">
        <ele>65.3</ele>
        <time>2019-09-05T18:57:26Z</time>
      </trkpt>
      <trkpt lat="36.7246690" lon="-4.4867070">
        <ele>65.4</ele>
        <time>2019-09-05T18:57:29Z</time>
      </trkpt>
      <trkpt lat="36.7246870" lon="-4.4866640">
        <ele>65.5</ele>
        <time>2019-09-05T18:57:32Z</time>
      </trkpt>
      <trkpt lat="36.7247150" lon="-4.4866270">
        <ele>65.7</ele>
        <time>2019-09-05T18:57:35Z</time>
      </trkpt>
      <trkpt lat="36.7247300" lon="-4.4865940">
        <ele>65.7</ele>
        <time>2019-09-05T18:57:37Z</time>
      </trkpt>
      <trkpt lat="36.7247420" lon="-4.4865450">
        <ele>65.9</ele>
        <time>2019-09-05T18:57:40Z</time>
      </trkpt>
      <trkpt lat="36.7247570" lon="-4.4865120">
        <ele>66.0</ele>
        <time>2019-09-05T18:57:42Z</time>
      </trkpt>
      <trkpt lat="36.7247750" lon="-4.4864780">
        <ele>66.1</ele>
        <time>2019-09-05T18:57:45Z</time>
      </trkpt>
      <trkpt lat="36.7247900" lon="-4.4864310">
        <ele>66.3</ele>
        <time>2019-09-05T18:57:47Z</time>
      </trkpt>
      <trkpt lat="36.7247990" lon="-4.4863850">
        <ele>66.4</ele>
        <time>2019-09-05T18:57:50Z</time>
      </trkpt>
      <trkpt lat="36.7248110" lon="-4.4863490">
        <ele>66.5</ele>
        <time>2019-09-05T18:57:53Z</time>
      </trkpt>
      <trkpt lat="36.7248230" lon="-4.4863100">
        <ele>66.7</ele>
        <time>2019-09-05T18:57:57Z</time>
      </trkpt>
      <trkpt lat="36.7248360" lon="-4.4862790">
        <ele>66.7</ele>
        <time>2019-09-05T18:57:59Z</time>
      </trkpt>
      <trkpt lat="36.7248540" lon="-4.4862270">
        <ele>66.8</ele>
        <time>2019-09-05T18:58:02Z</time>
      </trkpt>
      <trkpt lat="36.7248700" lon="-4.4861880">
        <ele>66.9</ele>
        <time>2019-09-05T18:58:04Z</time>
      </trkpt>
      <trkpt lat="36.7248810" lon="-4.4861560">
        <ele>66.8</ele>
        <time>2019-09-05T18:58:06Z</time>
      </trkpt>
      <trkpt lat="36.7248560" lon="-4.4861190">
        <ele>66.7</ele>
        <time>2019-09-05T18:58:11Z</time>
      </trkpt>
      <trkpt lat="36.7248190" lon="-4.4861020">
        <ele>66.6</ele>
        <time>2019-09-05T18:58:13Z</time>
      </trkpt>
      <trkpt lat="36.7247880" lon="-4.4860910">
        <ele>66.6</ele>
        <time>2019-09-05T18:58:15Z</time>
      </trkpt>
      <trkpt lat="36.7247590" lon="-4.4860730">
        <ele>66.5</ele>
        <time>2019-09-05T18:58:17Z</time>
      </trkpt>
      <trkpt lat="36.7247220" lon="-4.4860560">
        <ele>66.4</ele>
        <time>2019-09-05T18:58:20Z</time>
      </trkpt>
      <trkpt lat="36.7246950" lon="-4.4860430">
        <ele>66.4</ele>
        <time>2019-09-05T18:58:22Z</time>
      </trkpt>
      <trkpt lat="36.7246650" lon="-4.4860380">
        <ele>66.5</ele>
        <time>2019-09-05T18:58:24Z</time>
      </trkpt>
      <trkpt lat="36.7246310" lon="-4.4860370">
        <ele>66.5</ele>
        <time>2019-09-05T18:58:27Z</time>
      </trkpt>
      <trkpt lat="36.7246030" lon="-4.4860340">
        <ele>66.6</ele>
        <time>2019-09-05T18:58:29Z</time>
      </trkpt>
      <trkpt lat="36.7245740" lon="-4.4860300">
        <ele>66.6</ele>
        <time>2019-09-05T18:58:31Z</time>
      </trkpt>
      <trkpt lat="36.7245430" lon="-4.4860310">
        <ele>66.7</ele>
        <time>2019-09-05T18:58:33Z</time>
      </trkpt>
      <trkpt lat="36.7245150" lon="-4.4860260">
        <ele>66.8</ele>
        <time>2019-09-05T18:58:35Z</time>
      </trkpt>
      <trkpt lat="36.7244870" lon="-4.4860220">
        <ele>66.9</ele>
        <time>2019-09-05T18:58:37Z</time>
      </trkpt>
      <trkpt lat="36.7244570" lon="-4.4860080">
        <ele>67.0</ele>
        <time>2019-09-05T18:58:39Z</time>
      </trkpt>
      <trkpt lat="36.7244300" lon="-4.4859900">
        <ele>67.1</ele>
        <time>2019-09-05T18:58:41Z</time>
      </trkpt>
      <trkpt lat="36.7244040" lon="-4.4859740">
        <ele>67.1</ele>
        <time>2019-09-05T18:58:43Z</time>
      </trkpt>
      <trkpt lat="36.7243790" lon="-4.4859500">
        <ele>67.2</ele>
        <time>2019-09-05T18:58:45Z</time>
      </trkpt>
      <trkpt lat="36.7243440" lon="-4.4859290">
        <ele>67.3</ele>
        <time>2019-09-05T18:58:48Z</time>
      </trkpt>
      <trkpt lat="36.7243130" lon="-4.4859090">
        <ele>67.3</ele>
        <time>2019-09-05T18:58:51Z</time>
      </trkpt>
      <trkpt lat="36.7242710" lon="-4.4859030">
        <ele>67.4</ele>
        <time>2019-09-05T18:58:54Z</time>
      </trkpt>
      <trkpt lat="36.7242340" lon="-4.4858840">
        <ele>67.4</ele>
        <time>2019-09-05T18:58:57Z</time>
      </trkpt>
      <trkpt lat="36.7242150" lon="-4.4858510">
        <ele>67.5</ele>
        <time>2019-09-05T18:58:59Z</time>
      </trkpt>
      <trkpt lat="36.7241970" lon="-4.4858200">
        <ele>67.5</ele>
        <time>2019-09-05T18:59:01Z</time>
      </trkpt>
      <trkpt lat="36.7241800" lon="-4.4857850">
        <ele>67.5</ele>
        <time>2019-09-05T18:59:03Z</time>
      </trkpt>
      <trkpt lat="36.7241640" lon="-4.4857540">
        <ele>67.5</ele>
        <time>2019-09-05T18:59:05Z</time>
      </trkpt>
      <trkpt lat="36.7241390" lon="-4.4857270">
        <ele>67.5</ele>
        <time>2019-09-05T18:59:07Z</time>
      </trkpt>
      <trkpt lat="36.7241070" lon="-4.4856960">
        <ele>67.6</ele>
        <time>2019-09-05T18:59:10Z</time>
      </trkpt>
      <trkpt lat="36.7240850" lon="-4.4856700">
        <ele>67.6</ele>
        <time>2019-09-05T18:59:12Z</time>
      </trkpt>
      <trkpt lat="36.7240520" lon="-4.4856420">
        <ele>67.6</ele>
        <time>2019-09-05T18:59:15Z</time>
      </trkpt>
      <trkpt lat="36.7240250" lon="-4.4856300">
        <ele>67.6</ele>
        <time>2019-09-05T18:59:17Z</time>
      </trkpt>
      <trkpt lat="36.7240000" lon="-4.4856160">
        <ele>67.6</ele>
        <time>2019-09-05T18:59:19Z</time>
      </trkpt>
      <trkpt lat="36.7239720" lon="-4.4856050">
        <ele>67.6</ele>
        <time>2019-09-05T18:59:21Z</time>
      </trkpt>
      <trkpt lat="36.7239440" lon="-4.4855930">
        <ele>67.6</ele>
        <time>2019-09-05T18:59:23Z</time>
      </trkpt>
      <trkpt lat="36.7239130" lon="-4.4855870">
        <ele>67.5</ele>
        <time>2019-09-05T18:59:26Z</time>
      </trkpt>
      <trkpt lat="36.7238830" lon="-4.4855750">
        <ele>67.5</ele>
        <time>2019-09-05T18:59:29Z</time>
      </trkpt>
      <trkpt lat="36.7238580" lon="-4.4855560">
        <ele>67.4</ele>
        <time>2019-09-05T18:59:31Z</time>
      </trkpt>
      <trkpt lat="36.7238350" lon="-4.4855390">
        <ele>67.3</ele>
        <time>2019-09-05T18:59:33Z</time>
      </trkpt>
      <trkpt lat="36.7238020" lon="-4.4855130">
        <ele>67.1</ele>
        <time>2019-09-05T18:59:36Z</time>
      </trkpt>
      <trkpt lat="36.7237710" lon="-4.4855020">
        <ele>67.0</ele>
        <time>2019-09-05T18:59:38Z</time>
      </trkpt>
      <trkpt lat="36.7237420" lon="-4.4854760">
        <ele>66.9</ele>
        <time>2019-09-05T18:59:40Z</time>
      </trkpt>
      <trkpt lat="36.7237120" lon="-4.4854650">
        <ele>66.8</ele>
        <time>2019-09-05T18:59:42Z</time>
      </trkpt>
      <trkpt lat="36.7236860" lon="-4.4854550">
        <ele>66.6</ele>
        <time>2019-09-05T18:59:44Z</time>
      </trkpt>
      <trkpt lat="36.7236580" lon="-4.4854450">
        <ele>66.5</ele>
        <time>2019-09-05T18:59:47Z</time>
      </trkpt>
      <trkpt lat="36.7236220" lon="-4.4854300">
        <ele>66.3</ele>
        <time>2019-09-05T18:59:50Z</time>
      </trkpt>
      <trkpt lat="36.7235880" lon="-4.4854190">
        <ele>66.1</ele>
        <time>2019-09-05T18:59:53Z</time>
      </trkpt>
      <trkpt lat="36.7235590" lon="-4.4853960">
        <ele>65.8</ele>
        <time>2019-09-05T18:59:56Z</time>
      </trkpt>
      <trkpt lat="36.7235300" lon="-4.4853850">
        <ele>65.7</ele>
        <time>2019-09-05T18:59:59Z</time>
      </trkpt>
      <trkpt lat="36.7235050" lon="-4.4853580">
        <ele>65.7</ele>
        <time>2019-09-05T19:00:02Z</time>
      </trkpt>
      <trkpt lat="36.7234720" lon="-4.4853160">
        <ele>65.6</ele>
        <time>2019-09-05T19:00:05Z</time>
      </trkpt>
      <trkpt lat="36.7234630" lon="-4.4852670">
        <ele>65.6</ele>
        <time>2019-09-05T19:00:07Z</time>
      </trkpt>
      <trkpt lat="36.7234610" lon="-4.4852260">
        <ele>65.6</ele>
        <time>2019-09-05T19:00:09Z</time>
      </trkpt>
      <trkpt lat="36.7234600" lon="-4.4851830">
        <ele>65.5</ele>
        <time>2019-09-05T19:00:11Z</time>
      </trkpt>
      <trkpt lat="36.7234580" lon="-4.4851290">
        <ele>65.5</ele>
        <time>2019-09-05T19:00:13Z</time>
      </trkpt>
      <trkpt lat="36.7234720" lon="-4.4850890">
        <ele>65.4</ele>
        <time>2019-09-05T19:00:14Z</time>
      </trkpt>
      <trkpt lat="36.7234890" lon="-4.4850580">
        <ele>65.3</ele>
        <time>2019-09-05T19:00:15Z</time>
      </trkpt>
      <trkpt lat="36.7235060" lon="-4.4850170">
        <ele>65.2</ele>
        <time>2019-09-05T19:00:17Z</time>
      </trkpt>
      <trkpt lat="36.7235220" lon="-4.4849810">
        <ele>65.2</ele>
        <time>2019-09-05T19:00:19Z</time>
      </trkpt>
      <trkpt lat="36.7235420" lon="-4.4849500">
        <ele>65.2</ele>
        <time>2019-09-05T19:00:22Z</time>
      </trkpt>
      <trkpt lat="36.7235570" lon="-4.4849040">
        <ele>65.1</ele>
        <time>2019-09-05T19:00:25Z</time>
      </trkpt>
      <trkpt lat="36.7235710" lon="-4.4848650">
        <ele>65.1</ele>
        <time>2019-09-05T19:00:28Z</time>
      </trkpt>
      <trkpt lat="36.7235820" lon="-4.4848200">
        <ele>65.1</ele>
        <time>2019-09-05T19:00:31Z</time>
      </trkpt>
      <trkpt lat="36.7235910" lon="-4.4847870">
        <ele>65.1</ele>
        <time>2019-09-05T19:00:33Z</time>
      </trkpt>
      <trkpt lat="36.7235980" lon="-4.4847530">
        <ele>65.1</ele>
        <time>2019-09-05T19:00:35Z</time>
      </trkpt>
      <trkpt lat="36.7236110" lon="-4.4847230">
        <ele>65.1</ele>
        <time>2019-09-05T19:00:37Z</time>
      </trkpt>
      <trkpt lat="36.7236230" lon="-4.4846910">
        <ele>65.2</ele>
        <time>2019-09-05T19:00:39Z</time>
      </trkpt>
      <trkpt lat="36.7236410" lon="-4.4846650">
        <ele>65.2</ele>
        <time>2019-09-05T19:00:41Z</time>
      </trkpt>
      <trkpt lat="36.7236610" lon="-4.4846360">
        <ele>65.2</ele>
        <time>2019-09-05T19:00:43Z</time>
      </trkpt>
      <trkpt lat="36.7236850" lon="-4.4845930">
        <ele>65.2</ele>
        <time>2019-09-05T19:00:46Z</time>
      </trkpt>
      <trkpt lat="36.7236990" lon="-4.4845530">
        <ele>65.2</ele>
        <time>2019-09-05T19:00:48Z</time>
      </trkpt>
      <trkpt lat="36.7237120" lon="-4.4845180">
        <ele>65.1</ele>
        <time>2019-09-05T19:00:50Z</time>
      </trkpt>
      <trkpt lat="36.7237240" lon="-4.4844710">
        <ele>65.1</ele>
        <time>2019-09-05T19:00:53Z</time>
      </trkpt>
      <trkpt lat="36.7237340" lon="-4.4844390">
        <ele>65.1</ele>
        <time>2019-09-05T19:00:55Z</time>
      </trkpt>
      <trkpt lat="36.7237550" lon="-4.4844000">
        <ele>65.1</ele>
        <time>2019-09-05T19:00:58Z</time>
      </trkpt>
      <trkpt lat="36.7237680" lon="-4.4843700">
        <ele>65.1</ele>
        <time>2019-09-05T19:01:00Z</time>
      </trkpt>
      <trkpt lat="36.7237840" lon="-4.4843420">
        <ele>65.0</ele>
        <time>2019-09-05T19:01:02Z</time>
      </trkpt>
      <trkpt lat="36.7238010" lon="-4.4843040">
        <ele>65.0</ele>
        <time>2019-09-05T19:01:06Z</time>
      </trkpt>
      <trkpt lat="36.7238220" lon="-4.4842580">
        <ele>64.9</ele>
        <time>2019-09-05T19:01:09Z</time>
      </trkpt>
      <trkpt lat="36.7238380" lon="-4.4842200">
        <ele>64.9</ele>
        <time>2019-09-05T19:01:12Z</time>
      </trkpt>
      <trkpt lat="36.7238480" lon="-4.4841860">
        <ele>64.8</ele>
        <time>2019-09-05T19:01:14Z</time>
      </trkpt>
      <trkpt lat="36.7238650" lon="-4.4841500">
        <ele>64.8</ele>
        <time>2019-09-05T19:01:16Z</time>
      </trkpt>
      <trkpt lat="36.7238820" lon="-4.4841070">
        <ele>64.9</ele>
        <time>2019-09-05T19:01:19Z</time>
      </trkpt>
      <trkpt lat="36.7238850" lon="-4.4840690">
        <ele>64.9</ele>
        <time>2019-09-05T19:01:21Z</time>
      </trkpt>
      <trkpt lat="36.7238870" lon="-4.4840180">
        <ele>65.1</ele>
        <time>2019-09-05T19:01:24Z</time>
      </trkpt>
      <trkpt lat="36.7238860" lon="-4.4839840">
        <ele>65.1</ele>
        <time>2019-09-05T19:01:26Z</time>
      </trkpt>
      <trkpt lat="36.7238880" lon="-4.4839320">
        <ele>65.1</ele>
        <time>2019-09-05T19:01:29Z</time>
      </trkpt>
      <trkpt lat="36.7238930" lon="-4.4838940">
        <ele>65.1</ele>
        <time>2019-09-05T19:01:31Z</time>
      </trkpt>
      <trkpt lat="36.7239000" lon="-4.4838460">
        <ele>65.0</ele>
        <time>2019-09-05T19:01:33Z</time>
      </trkpt>
      <trkpt lat="36.7239120" lon="-4.4838080">
        <ele>64.8</ele>
        <time>2019-09-05T19:01:35Z</time>
      </trkpt>
      <trkpt lat="36.7239320" lon="-4.4837690">
        <ele>64.8</ele>
        <time>2019-09-05T19:01:38Z</time>
      </trkpt>
      <trkpt lat="36.7239480" lon="-4.4837300">
        <ele>64.7</ele>
        <time>2019-09-05T19:01:41Z</time>
      </trkpt>
      <trkpt lat="36.7239520" lon="-4.4836870">
        <ele>64.6</ele>
        <time>2019-09-05T19:01:43Z</time>
      </trkpt>
      <trkpt lat="36.7239440" lon="-4.4836450">
        <ele>64.5</ele>
        <time>2019-09-05T19:01:45Z</time>
      </trkpt>
      <trkpt lat="36.7239430" lon="-4.4836080">
        <ele>64.5</ele>
        <time>2019-09-05T19:01:47Z</time>
      </trkpt>
      <trkpt lat="36.7239340" lon="-4.4835700">
        <ele>64.4</ele>
        <time>2019-09-05T19:01:50Z</time>
      </trkpt>
      <trkpt lat="36.7239320" lon="-4.4835210">
        <ele>64.3</ele>
        <time>2019-09-05T19:01:53Z</time>
      </trkpt>
      <trkpt lat="36.7239260" lon="-4.4834830">
        <ele>64.2</ele>
        <time>2019-09-05T19:01:55Z</time>
      </trkpt>
      <trkpt lat="36.7239160" lon="-4.4834450">
        <ele>64.1</ele>
        <time>2019-09-05T19:01:58Z</time>
      </trkpt>
      <trkpt lat="36.7239020" lon="-4.4834090">
        <ele>64.1</ele>
        <time>2019-09-05T19:02:01Z</time>
      </trkpt>
      <trkpt lat="36.7239030" lon="-4.4833730">
        <ele>64.0</ele>
        <time>2019-09-05T19:02:05Z</time>
      </trkpt>
      <trkpt lat="36.7239150" lon="-4.4833340">
        <ele>64.0</ele>
        <time>2019-09-05T19:02:07Z</time>
      </trkpt>
      <trkpt lat="36.7239270" lon="-4.4833020">
        <ele>63.9</ele>
        <time>2019-09-05T19:02:09Z</time>
      </trkpt>
      <trkpt lat="36.7239420" lon="-4.4832700">
        <ele>63.9</ele>
        <time>2019-09-05T19:02:11Z</time>
      </trkpt>
      <trkpt lat="36.7239450" lon="-4.4832300">
        <ele>63.9</ele>
        <time>2019-09-05T19:02:14Z</time>
      </trkpt>
      <trkpt lat="36.7239610" lon="-4.4831950">
        <ele>63.9</ele>
        <time>2019-09-05T19:02:16Z</time>
      </trkpt>
      <trkpt lat="36.7239770" lon="-4.4831570">
        <ele>63.8</ele>
        <time>2019-09-05T19:02:18Z</time>
      </trkpt>
      <trkpt lat="36.7239840" lon="-4.4831150">
        <ele>63.8</ele>
        <time>2019-09-05T19:02:21Z</time>
      </trkpt>
      <trkpt lat="36.7239920" lon="-4.4830680">
        <ele>63.8</ele>
        <time>2019-09-05T19:02:24Z</time>
      </trkpt>
      <trkpt lat="36.7240030" lon="-4.4830330">
        <ele>63.8</ele>
        <time>2019-09-05T19:02:26Z</time>
      </trkpt>
      <trkpt lat="36.7240080" lon="-4.4829980">
        <ele>63.8</ele>
        <time>2019-09-05T19:02:29Z</time>
      </trkpt>
      <trkpt lat="36.7240230" lon="-4.4829650">
        <ele>63.8</ele>
        <time>2019-09-05T19:02:31Z</time>
      </trkpt>
      <trkpt lat="36.7240450" lon="-4.4829090">
        <ele>63.8</ele>
        <time>2019-09-05T19:02:34Z</time>
      </trkpt>
      <trkpt lat="36.7240590" lon="-4.4828630">
        <ele>63.8</ele>
        <time>2019-09-05T19:02:36Z</time>
      </trkpt>
      <trkpt lat="36.7240650" lon="-4.4828290">
        <ele>63.7</ele>
        <time>2019-09-05T19:02:38Z</time>
      </trkpt>
      <trkpt lat="36.7240700" lon="-4.4827960">
        <ele>63.7</ele>
        <time>2019-09-05T19:02:41Z</time>
      </trkpt>
      <trkpt lat="36.7240800" lon="-4.4827640">
        <ele>63.7</ele>
        <time>2019-09-05T19:02:43Z</time>
      </trkpt>
      <trkpt lat="36.7240860" lon="-4.4827240">
        <ele>63.6</ele>
        <time>2019-09-05T19:02:46Z</time>
      </trkpt>
      <trkpt lat="36.7240940" lon="-4.4826770">
        <ele>63.6</ele>
        <time>2019-09-05T19:02:49Z</time>
      </trkpt>
      <trkpt lat="36.7241030" lon="-4.4826330">
        <ele>63.6</ele>
        <time>2019-09-05T19:02:51Z</time>
      </trkpt>
      <trkpt lat="36.7241190" lon="-4.4825910">
        <ele>63.6</ele>
        <time>2019-09-05T19:02:53Z</time>
      </trkpt>
      <trkpt lat="36.7241390" lon="-4.4825540">
        <ele>63.6</ele>
        <time>2019-09-05T19:02:55Z</time>
      </trkpt>
      <trkpt lat="36.7241590" lon="-4.4825240">
        <ele>63.6</ele>
        <time>2019-09-05T19:02:57Z</time>
      </trkpt>
      <trkpt lat="36.7241770" lon="-4.4824950">
        <ele>63.7</ele>
        <time>2019-09-05T19:03:00Z</time>
      </trkpt>
      <trkpt lat="36.7241860" lon="-4.4824600">
        <ele>63.7</ele>
        <time>2019-09-05T19:03:03Z</time>
      </trkpt>
      <trkpt lat="36.7241960" lon="-4.4824270">
        <ele>63.7</ele>
        <time>2019-09-05T19:03:05Z</time>
      </trkpt>
      <trkpt lat="36.7242050" lon="-4.4823930">
        <ele>63.7</ele>
        <time>2019-09-05T19:03:07Z</time>
      </trkpt>
      <trkpt lat="36.7242170" lon="-4.4823600">
        <ele>63.8</ele>
        <time>2019-09-05T19:03:10Z</time>
      </trkpt>
      <trkpt lat="36.7242320" lon="-4.4823260">
        <ele>63.8</ele>
        <time>2019-09-05T19:03:12Z</time>
      </trkpt>
      <trkpt lat="36.7242420" lon="-4.4822880">
        <ele>63.8</ele>
        <time>2019-09-05T19:03:14Z</time>
      </trkpt>
      <trkpt lat="36.7242550" lon="-4.4822560">
        <ele>63.8</ele>
        <time>2019-09-05T19:03:16Z</time>
      </trkpt>
      <trkpt lat="36.7242700" lon="-4.4822190">
        <ele>63.9</ele>
        <time>2019-09-05T19:03:18Z</time>
      </trkpt>
      <trkpt lat="36.7242840" lon="-4.4821770">
        <ele>63.9</ele>
        <time>2019-09-05T19:03:20Z</time>
      </trkpt>
      <trkpt lat="36.7242950" lon="-4.4821450">
        <ele>63.9</ele>
        <time>2019-09-05T19:03:22Z</time>
      </trkpt>
      <trkpt lat="36.7243050" lon="-4.4821100">
        <ele>63.9</ele>
        <time>2019-09-05T19:03:25Z</time>
      </trkpt>
      <trkpt lat="36.7243130" lon="-4.4820760">
        <ele>64.0</ele>
        <time>2019-09-05T19:03:28Z</time>
      </trkpt>
      <trkpt lat="36.7243270" lon="-4.4820460">
        <ele>64.0</ele>
        <time>2019-09-05T19:03:31Z</time>
      </trkpt>
      <trkpt lat="36.7243370" lon="-4.4820050">
        <ele>64.0</ele>
        <time>2019-09-05T19:03:34Z</time>
      </trkpt>
      <trkpt lat="36.7243530" lon="-4.4819720">
        <ele>64.1</ele>
        <time>2019-09-05T19:03:37Z</time>
      </trkpt>
      <trkpt lat="36.7243660" lon="-4.4819250">
        <ele>64.1</ele>
        <time>2019-09-05T19:03:40Z</time>
      </trkpt>
      <trkpt lat="36.7243760" lon="-4.4818930">
        <ele>64.2</ele>
        <time>2019-09-05T19:03:42Z</time>
      </trkpt>
      <trkpt lat="36.7243830" lon="-4.4818590">
        <ele>64.2</ele>
        <time>2019-09-05T19:03:44Z</time>
      </trkpt>
      <trkpt lat="36.7243890" lon="-4.4818230">
        <ele>64.3</ele>
        <time>2019-09-05T19:03:46Z</time>
      </trkpt>
      <trkpt lat="36.7243980" lon="-4.4817740">
        <ele>64.3</ele>
        <time>2019-09-05T19:03:49Z</time>
      </trkpt>
      <trkpt lat="36.7244140" lon="-4.4817310">
        <ele>64.4</ele>
        <time>2019-09-05T19:03:51Z</time>
      </trkpt>
      <trkpt lat="36.7244300" lon="-4.4816970">
        <ele>64.4</ele>
        <time>2019-09-05T19:03:53Z</time>
      </trkpt>
      <trkpt lat="36.7244370" lon="-4.4816550">
        <ele>64.5</ele>
        <time>2019-09-05T19:03:57Z</time>
      </trkpt>
      <trkpt lat="36.7244550" lon="-4.4816150">
        <ele>64.5</ele>
        <time>2019-09-05T19:04:00Z</time>
      </trkpt>
      <trkpt lat="36.7244720" lon="-4.4815760">
        <ele>64.4</ele>
        <time>2019-09-05T19:04:03Z</time>
      </trkpt>
      <trkpt lat="36.7244910" lon="-4.4815400">
        <ele>64.4</ele>
        <time>2019-09-05T19:04:06Z</time>
      </trkpt>
      <trkpt lat="36.7245050" lon="-4.4815070">
        <ele>64.4</ele>
        <time>2019-09-05T19:04:08Z</time>
      </trkpt>
      <trkpt lat="36.7245210" lon="-4.4814710">
        <ele>64.5</ele>
        <time>2019-09-05T19:04:11Z</time>
      </trkpt>
      <trkpt lat="36.7245290" lon="-4.4814140">
        <ele>63.6</ele>
        <time>2019-09-05T19:04:14Z</time>
      </trkpt>
      <trkpt lat="36.7245250" lon="-4.4813770">
        <ele>63.6</ele>
        <time>2019-09-05T19:04:16Z</time>
      </trkpt>
      <trkpt lat="36.7245040" lon="-4.4813510">
        <ele>63.5</ele>
        <time>2019-09-05T19:04:22Z</time>
      </trkpt>
      <trkpt lat="36.7245200" lon="-4.4813190">
        <ele>63.5</ele>
        <time>2019-09-05T19:04:24Z</time>
      </trkpt>
      <trkpt lat="36.7245350" lon="-4.4812890">
        <ele>63.4</ele>
        <time>2019-09-05T19:04:26Z</time>
      </trkpt>
      <trkpt lat="36.7245400" lon="-4.4812500">
        <ele>63.4</ele>
        <time>2019-09-05T19:04:28Z</time>
      </trkpt>
      <trkpt lat="36.7245410" lon="-4.4812090">
        <ele>63.3</ele>
        <time>2019-09-05T19:04:30Z</time>
      </trkpt>
      <trkpt lat="36.7245410" lon="-4.4811650">
        <ele>63.3</ele>
        <time>2019-09-05T19:04:32Z</time>
      </trkpt>
      <trkpt lat="36.7245150" lon="-4.4811720">
        <ele>63.3</ele>
        <time>2019-09-05T19:04:35Z</time>
      </trkpt>
      <trkpt lat="36.7244900" lon="-4.4812150">
        <ele>63.2</ele>
        <time>2019-09-05T19:04:37Z</time>
      </trkpt>
      <trkpt lat="36.7244640" lon="-4.4812560">
        <ele>63.1</ele>
        <time>2019-09-05T19:04:39Z</time>
      </trkpt>
      <trkpt lat="36.7244330" lon="-4.4812760">
        <ele>63.1</ele>
        <time>2019-09-05T19:04:42Z</time>
      </trkpt>
      <trkpt lat="36.7243980" lon="-4.4812630">
        <ele>63.1</ele>
        <time>2019-09-05T19:04:45Z</time>
      </trkpt>
      <trkpt lat="36.7243660" lon="-4.4812330">
        <ele>63.0</ele>
        <time>2019-09-05T19:04:47Z</time>
      </trkpt>
      <trkpt lat="36.7243300" lon="-4.4812020">
        <ele>63.0</ele>
        <time>2019-09-05T19:04:49Z</time>
      </trkpt>
      <trkpt lat="36.7243020" lon="-4.4811690">
        <ele>63.0</ele>
        <time>2019-09-05T19:04:51Z</time>
      </trkpt>
      <trkpt lat="36.7242830" lon="-4.4811310">
        <ele>63.0</ele>
        <time>2019-09-05T19:04:53Z</time>
      </trkpt>
      <trkpt lat="36.7242820" lon="-4.4810950">
        <ele>63.0</ele>
        <time>2019-09-05T19:04:55Z</time>
      </trkpt>
      <trkpt lat="36.7242890" lon="-4.4810480">
        <ele>63.0</ele>
        <time>2019-09-05T19:04:58Z</time>
      </trkpt>
      <trkpt lat="36.7243010" lon="-4.4810080">
        <ele>63.0</ele>
        <time>2019-09-05T19:05:01Z</time>
      </trkpt>
      <trkpt lat="36.7243080" lon="-4.4809750">
        <ele>63.0</ele>
        <time>2019-09-05T19:05:04Z</time>
      </trkpt>
      <trkpt lat="36.7243150" lon="-4.4809360">
        <ele>63.0</ele>
        <time>2019-09-05T19:05:07Z</time>
      </trkpt>
      <trkpt lat="36.7243250" lon="-4.4808870">
        <ele>63.0</ele>
        <time>2019-09-05T19:05:10Z</time>
      </trkpt>
      <trkpt lat="36.7243380" lon="-4.4808400">
        <ele>63.0</ele>
        <time>2019-09-05T19:05:13Z</time>
      </trkpt>
      <trkpt lat="36.7243430" lon="-4.4807980">
        <ele>63.0</ele>
        <time>2019-09-05T19:05:16Z</time>
      </trkpt>
      <trkpt lat="36.7243520" lon="-4.4807570">
        <ele>63.0</ele>
        <time>2019-09-05T19:05:19Z</time>
      </trkpt>
      <trkpt lat="36.7243620" lon="-4.4807250">
        <ele>63.0</ele>
        <time>2019-09-05T19:05:21Z</time>
      </trkpt>
      <trkpt lat="36.7243700" lon="-4.4806860">
        <ele>63.0</ele>
        <time>2019-09-05T19:05:23Z</time>
      </trkpt>
      <trkpt lat="36.7243800" lon="-4.4806530">
        <ele>63.0</ele>
        <time>2019-09-05T19:05:25Z</time>
      </trkpt>
      <trkpt lat="36.7243920" lon="-4.4806020">
        <ele>63.1</ele>
        <time>2019-09-05T19:05:28Z</time>
      </trkpt>
      <trkpt lat="36.7243980" lon="-4.4805630">
        <ele>63.1</ele>
        <time>2019-09-05T19:05:30Z</time>
      </trkpt>
      <trkpt lat="36.7243930" lon="-4.4805230">
        <ele>63.1</ele>
        <time>2019-09-05T19:05:33Z</time>
      </trkpt>
      <trkpt lat="36.7243980" lon="-4.4804860">
        <ele>63.2</ele>
        <time>2019-09-05T19:05:36Z</time>
      </trkpt>
      <trkpt lat="36.7244040" lon="-4.4804430">
        <ele>63.2</ele>
        <time>2019-09-05T19:05:39Z</time>
      </trkpt>
      <trkpt lat="36.7244160" lon="-4.4804030">
        <ele>63.3</ele>
        <time>2019-09-05T19:05:42Z</time>
      </trkpt>
      <trkpt lat="36.7244170" lon="-4.4803590">
        <ele>63.3</ele>
        <time>2019-09-05T19:05:45Z</time>
      </trkpt>
      <trkpt lat="36.7244160" lon="-4.4803250">
        <ele>63.3</ele>
        <time>2019-09-05T19:05:48Z</time>
      </trkpt>
      <trkpt lat="36.7244080" lon="-4.4802760">
        <ele>63.4</ele>
        <time>2019-09-05T19:05:51Z</time>
      </trkpt>
      <trkpt lat="36.7244150" lon="-4.4802250">
        <ele>63.4</ele>
        <time>2019-09-05T19:05:53Z</time>
      </trkpt>
      <trkpt lat="36.7244060" lon="-4.4801840">
        <ele>63.5</ele>
        <time>2019-09-05T19:05:55Z</time>
      </trkpt>
      <trkpt lat="36.7243930" lon="-4.4801500">
        <ele>63.5</ele>
        <time>2019-09-05T19:05:57Z</time>
      </trkpt>
      <trkpt lat="36.7243850" lon="-4.4801120">
        <ele>63.5</ele>
        <time>2019-09-05T19:05:59Z</time>
      </trkpt>
      <trkpt lat="36.7243790" lon="-4.4800700">
        <ele>63.6</ele>
        <time>2019-09-05T19:06:01Z</time>
      </trkpt>
      <trkpt lat="36.7243770" lon="-4.4800360">
        <ele>63.6</ele>
        <time>2019-09-05T19:06:03Z</time>
      </trkpt>
      <trkpt lat="36.7243730" lon="-4.4799990">
        <ele>63.7</ele>
        <time>2019-09-05T19:06:05Z</time>
      </trkpt>
      <trkpt lat="36.7243660" lon="-4.4799540">
        <ele>63.3</ele>
        <time>2019-09-05T19:06:08Z</time>
      </trkpt>
      <trkpt lat="36.7243500" lon="-4.4799110">
        <ele>63.2</ele>
        <time>2019-09-05T19:06:11Z</time>
      </trkpt>
      <trkpt lat="36.7243450" lon="-4.4798760">
        <ele>63.1</ele>
        <time>2019-09-05T19:06:13Z</time>
      </trkpt>
      <trkpt lat="36.7243230" lon="-4.4798380">
        <ele>62.9</ele>
        <time>2019-09-05T19:06:16Z</time>
      </trkpt>
      <trkpt lat="36.7243000" lon="-4.4798140">
        <ele>62.8</ele>
        <time>2019-09-05T19:06:18Z</time>
      </trkpt>
      <trkpt lat="36.7242720" lon="-4.4798040">
        <ele>62.7</ele>
        <time>2019-09-05T19:06:20Z</time>
      </trkpt>
      <trkpt lat="36.7242450" lon="-4.4797960">
        <ele>62.6</ele>
        <time>2019-09-05T19:06:22Z</time>
      </trkpt>
      <trkpt lat="36.7242020" lon="-4.4798070">
        <ele>62.4</ele>
        <time>2019-09-05T19:06:25Z</time>
      </trkpt>
      <trkpt lat="36.7241410" lon="-4.4798200">
        <ele>62.2</ele>
        <time>2019-09-05T19:06:27Z</time>
      </trkpt>
      <trkpt lat="36.7241000" lon="-4.4798260">
        <ele>62.1</ele>
        <time>2019-09-05T19:06:29Z</time>
      </trkpt>
      <trkpt lat="36.7240680" lon="-4.4798240">
        <ele>62.0</ele>
        <time>2019-09-05T19:06:31Z</time>
      </trkpt>
      <trkpt lat="36.7240360" lon="-4.4798180">
        <ele>61.9</ele>
        <time>2019-09-05T19:06:34Z</time>
      </trkpt>
      <trkpt lat="36.7240080" lon="-4.4798110">
        <ele>61.9</ele>
        <time>2019-09-05T19:06:39Z</time>
      </trkpt>
      <trkpt lat="36.7239860" lon="-4.4798340">
        <ele>61.8</ele>
        <time>2019-09-05T19:06:42Z</time>
      </trkpt>
      <trkpt lat="36.7239560" lon="-4.4798260">
        <ele>61.7</ele>
        <time>2019-09-05T19:06:48Z</time>
      </trkpt>
      <trkpt lat="36.7239910" lon="-4.4798230">
        <ele>61.6</ele>
        <time>2019-09-05T19:06:51Z</time>
      </trkpt>
      <trkpt lat="36.7239740" lon="-4.4801720">
        <ele>61.6</ele>
        <time>2019-09-05T20:02:27Z</time>
      </trkpt>
      <trkpt lat="36.7239890" lon="-4.4801310">
        <ele>61.7</ele>
        <time>2019-09-05T20:02:30Z</time>
      </trkpt>
      <trkpt lat="36.7240580" lon="-4.4800520">
        <ele>62.0</ele>
        <time>2019-09-05T20:02:42Z</time>
      </trkpt>
      <trkpt lat="36.7241350" lon="-4.4800130">
        <ele>62.2</ele>
        <time>2019-09-05T20:02:47Z</time>
      </trkpt>
      <trkpt lat="36.7241760" lon="-4.4800050">
        <ele>62.4</ele>
        <time>2019-09-05T20:02:49Z</time>
      </trkpt>
      <trkpt lat="36.7242030" lon="-4.4800160">
        <ele>62.5</ele>
        <time>2019-09-05T20:02:51Z</time>
      </trkpt>
      <trkpt lat="36.7242370" lon="-4.4800160">
        <ele>62.6</ele>
        <time>2019-09-05T20:02:54Z</time>
      </trkpt>
      <trkpt lat="36.7242730" lon="-4.4800100">
        <ele>62.8</ele>
        <time>2019-09-05T20:02:57Z</time>
      </trkpt>
      <trkpt lat="36.7243060" lon="-4.4800110">
        <ele>63.0</ele>
        <time>2019-09-05T20:03:00Z</time>
      </trkpt>
      <trkpt lat="36.7243350" lon="-4.4800210">
        <ele>63.1</ele>
        <time>2019-09-05T20:03:02Z</time>
      </trkpt>
      <trkpt lat="36.7243580" lon="-4.4800390">
        <ele>63.3</ele>
        <time>2019-09-05T20:03:04Z</time>
      </trkpt>
      <trkpt lat="36.7243800" lon="-4.4800650">
        <ele>63.4</ele>
        <time>2019-09-05T20:03:06Z</time>
      </trkpt>
      <trkpt lat="36.7244000" lon="-4.4800870">
        <ele>63.5</ele>
        <time>2019-09-05T20:03:08Z</time>
      </trkpt>
      <trkpt lat="36.7244260" lon="-4.4801130">
        <ele>63.7</ele>
        <time>2019-09-05T20:03:10Z</time>
      </trkpt>
      <trkpt lat="36.7244500" lon="-4.4801320">
        <ele>63.7</ele>
        <time>2019-09-05T20:03:12Z</time>
      </trkpt>
      <trkpt lat="36.7244780" lon="-4.4801350">
        <ele>63.9</ele>
        <time>2019-09-05T20:03:15Z</time>
      </trkpt>
      <trkpt lat="36.7245030" lon="-4.4801130">
        <ele>64.0</ele>
        <time>2019-09-05T20:03:18Z</time>
      </trkpt>
      <trkpt lat="36.7245240" lon="-4.4800890">
        <ele>64.1</ele>
        <time>2019-09-05T20:03:21Z</time>
      </trkpt>
      <trkpt lat="36.7245570" lon="-4.4800740">
        <ele>64.3</ele>
        <time>2019-09-05T20:03:24Z</time>
      </trkpt>
      <trkpt lat="36.7245860" lon="-4.4800650">
        <ele>64.4</ele>
        <time>2019-09-05T20:03:27Z</time>
      </trkpt>
      <trkpt lat="36.7246160" lon="-4.4800500">
        <ele>64.6</ele>
        <time>2019-09-05T20:03:29Z</time>
      </trkpt>
      <trkpt lat="36.7246510" lon="-4.4800420">
        <ele>64.7</ele>
        <time>2019-09-05T20:03:31Z</time>
      </trkpt>
      <trkpt lat="36.7246860" lon="-4.4800420">
        <ele>64.9</ele>
        <time>2019-09-05T20:03:34Z</time>
      </trkpt>
      <trkpt lat="36.7247180" lon="-4.4800440">
        <ele>65.1</ele>
        <time>2019-09-05T20:03:36Z</time>
      </trkpt>
      <trkpt lat="36.7247540" lon="-4.4800530">
        <ele>65.3</ele>
        <time>2019-09-05T20:03:39Z</time>
      </trkpt>
      <trkpt lat="36.7247860" lon="-4.4800710">
        <ele>65.5</ele>
        <time>2019-09-05T20:03:43Z</time>
      </trkpt>
      <trkpt lat="36.7248110" lon="-4.4800430">
        <ele>65.7</ele>
        <time>2019-09-05T20:03:50Z</time>
      </trkpt>
      <trkpt lat="36.7248490" lon="-4.4800380">
        <ele>66.2</ele>
        <time>2019-09-05T20:03:52Z</time>
      </trkpt>
      <trkpt lat="36.7248910" lon="-4.4800250">
        <ele>66.7</ele>
        <time>2019-09-05T20:03:55Z</time>
      </trkpt>
      <trkpt lat="36.7249270" lon="-4.4800130">
        <ele>67.1</ele>
        <time>2019-09-05T20:03:57Z</time>
      </trkpt>
      <trkpt lat="36.7249600" lon="-4.4800040">
        <ele>67.5</ele>
        <time>2019-09-05T20:03:59Z</time>
      </trkpt>
      <trkpt lat="36.7249890" lon="-4.4800150">
        <ele>67.8</ele>
        <time>2019-09-05T20:04:02Z</time>
      </trkpt>
      <trkpt lat="36.7250240" lon="-4.4800200">
        <ele>68.2</ele>
        <time>2019-09-05T20:04:06Z</time>
      </trkpt>
      <trkpt lat="36.7250530" lon="-4.4800090">
        <ele>68.6</ele>
        <time>2019-09-05T20:04:08Z</time>
      </trkpt>
      <trkpt lat="36.7250930" lon="-4.4799980">
        <ele>69.0</ele>
        <time>2019-09-05T20:04:10Z</time>
      </trkpt>
      <trkpt lat="36.7251290" lon="-4.4799980">
        <ele>69.4</ele>
        <time>2019-09-05T20:04:12Z</time>
      </trkpt>
      <trkpt lat="36.7251530" lon="-4.4800170">
        <ele>69.7</ele>
        <time>2019-09-05T20:04:14Z</time>
      </trkpt>
      <trkpt lat="36.7251830" lon="-4.4800260">
        <ele>70.0</ele>
        <time>2019-09-05T20:04:16Z</time>
      </trkpt>
      <trkpt lat="36.7252200" lon="-4.4800210">
        <ele>70.4</ele>
        <time>2019-09-05T20:04:19Z</time>
      </trkpt>
      <trkpt lat="36.7252480" lon="-4.4800120">
        <ele>70.7</ele>
        <time>2019-09-05T20:04:22Z</time>
      </trkpt>
      <trkpt lat="36.7252800" lon="-4.4800300">
        <ele>71.1</ele>
        <time>2019-09-05T20:04:24Z</time>
      </trkpt>
      <trkpt lat="36.7253150" lon="-4.4800210">
        <ele>71.6</ele>
        <time>2019-09-05T20:04:27Z</time>
      </trkpt>
      <trkpt lat="36.7253490" lon="-4.4800060">
        <ele>72.0</ele>
        <time>2019-09-05T20:04:31Z</time>
      </trkpt>
      <trkpt lat="36.7253770" lon="-4.4800070">
        <ele>72.4</ele>
        <time>2019-09-05T20:04:33Z</time>
      </trkpt>
      <trkpt lat="36.7254040" lon="-4.4799860">
        <ele>72.8</ele>
        <time>2019-09-05T20:04:36Z</time>
      </trkpt>
      <trkpt lat="36.7254470" lon="-4.4799890">
        <ele>73.4</ele>
        <time>2019-09-05T20:04:40Z</time>
      </trkpt>
      <trkpt lat="36.7254750" lon="-4.4799910">
        <ele>73.7</ele>
        <time>2019-09-05T20:04:42Z</time>
      </trkpt>
      <trkpt lat="36.7255040" lon="-4.4799980">
        <ele>74.1</ele>
        <time>2019-09-05T20:04:44Z</time>
      </trkpt>
      <trkpt lat="36.7255490" lon="-4.4800020">
        <ele>74.6</ele>
        <time>2019-09-05T20:04:46Z</time>
      </trkpt>
      <trkpt lat="36.7255900" lon="-4.4800110">
        <ele>75.0</ele>
        <time>2019-09-05T20:04:47Z</time>
      </trkpt>
      <trkpt lat="36.7256290" lon="-4.4800090">
        <ele>75.4</ele>
        <time>2019-09-05T20:04:49Z</time>
      </trkpt>
      <trkpt lat="36.7256600" lon="-4.4799970">
        <ele>75.7</ele>
        <time>2019-09-05T20:04:52Z</time>
      </trkpt>
      <trkpt lat="36.7256850" lon="-4.4799810">
        <ele>76.0</ele>
        <time>2019-09-05T20:04:58Z</time>
      </trkpt>
      <trkpt lat="36.7257130" lon="-4.4799900">
        <ele>76.3</ele>
        <time>2019-09-05T20:05:01Z</time>
      </trkpt>
      <trkpt lat="36.7257450" lon="-4.4799910">
        <ele>76.6</ele>
        <time>2019-09-05T20:05:05Z</time>
      </trkpt>
      <trkpt lat="36.7257790" lon="-4.4799890">
        <ele>76.9</ele>
        <time>2019-09-05T20:05:07Z</time>
      </trkpt>
      <trkpt lat="36.7258100" lon="-4.4800000">
        <ele>77.2</ele>
        <time>2019-09-05T20:05:11Z</time>
      </trkpt>
      <trkpt lat="36.7258470" lon="-4.4799910">
        <ele>77.5</ele>
        <time>2019-09-05T20:05:14Z</time>
      </trkpt>
      <trkpt lat="36.7258800" lon="-4.4799970">
        <ele>77.8</ele>
        <time>2019-09-05T20:05:19Z</time>
      </trkpt>
      <trkpt lat="36.7259060" lon="-4.4799830">
        <ele>78.1</ele>
        <time>2019-09-05T20:05:22Z</time>
      </trkpt>
      <trkpt lat="36.7259330" lon="-4.4799600">
        <ele>78.4</ele>
        <time>2019-09-05T20:05:26Z</time>
      </trkpt>
      <trkpt lat="36.7259360" lon="-4.4799260">
        <ele>78.7</ele>
        <time>2019-09-05T20:05:31Z</time>
      </trkpt>
      <trkpt lat="36.7259550" lon="-4.4799500">
        <ele>79.0</ele>
        <time>2019-09-05T20:05:32Z</time>
      </trkpt>
      <trkpt lat="36.7259790" lon="-4.4799920">
        <ele>79.4</ele>
        <time>2019-09-05T20:05:37Z</time>
      </trkpt>
      <trkpt lat="36.7260120" lon="-4.4799860">
        <ele>79.7</ele>
        <time>2019-09-05T20:05:41Z</time>
      </trkpt>
      <trkpt lat="36.7260400" lon="-4.4799820">
        <ele>80.0</ele>
        <time>2019-09-05T20:05:43Z</time>
      </trkpt>
      <trkpt lat="36.7260700" lon="-4.4799710">
        <ele>80.4</ele>
        <time>2019-09-05T20:05:45Z</time>
      </trkpt>
      <trkpt lat="36.7261110" lon="-4.4799630">
        <ele>80.8</ele>
        <time>2019-09-05T20:05:48Z</time>
      </trkpt>
      <trkpt lat="36.7261430" lon="-4.4799500">
        <ele>81.2</ele>
        <time>2019-09-05T20:05:50Z</time>
      </trkpt>
      <trkpt lat="36.7261700" lon="-4.4799500">
        <ele>81.5</ele>
        <time>2019-09-05T20:05:51Z</time>
      </trkpt>
      <trkpt lat="36.7261950" lon="-4.4799680">
        <ele>81.8</ele>
        <time>2019-09-05T20:05:52Z</time>
      </trkpt>
      <trkpt lat="36.7262320" lon="-4.4799950">
        <ele>82.3</ele>
        <time>2019-09-05T20:05:54Z</time>
      </trkpt>
      <trkpt lat="36.7262700" lon="-4.4800420">
        <ele>82.9</ele>
        <time>2019-09-05T20:05:56Z</time>
      </trkpt>
      <trkpt lat="36.7262860" lon="-4.4800740">
        <ele>82.6</ele>
        <time>2019-09-05T20:05:58Z</time>
      </trkpt>
      <trkpt lat="36.7262910" lon="-4.4801110">
        <ele>82.4</ele>
        <time>2019-09-05T20:06:01Z</time>
      </trkpt>
      <trkpt lat="36.7263040" lon="-4.4801430">
        <ele>82.2</ele>
        <time>2019-09-05T20:06:03Z</time>
      </trkpt>
      <trkpt lat="36.7263240" lon="-4.4801860">
        <ele>81.8</ele>
        <time>2019-09-05T20:06:06Z</time>
      </trkpt>
      <trkpt lat="36.7263410" lon="-4.4802230">
        <ele>81.6</ele>
        <time>2019-09-05T20:06:08Z</time>
      </trkpt>
      <trkpt lat="36.7263440" lon="-4.4802580">
        <ele>81.3</ele>
        <time>2019-09-05T20:06:10Z</time>
      </trkpt>
      <trkpt lat="36.7263490" lon="-4.4802980">
        <ele>81.1</ele>
        <time>2019-09-05T20:06:13Z</time>
      </trkpt>
      <trkpt lat="36.7263570" lon="-4.4803310">
        <ele>80.8</ele>
        <time>2019-09-05T20:06:16Z</time>
      </trkpt>
      <trkpt lat="36.7263630" lon="-4.4803750">
        <ele>80.4</ele>
        <time>2019-09-05T20:06:20Z</time>
      </trkpt>
      <trkpt lat="36.7263670" lon="-4.4804130">
        <ele>80.3</ele>
        <time>2019-09-05T20:06:23Z</time>
      </trkpt>
      <trkpt lat="36.7263750" lon="-4.4804510">
        <ele>80.2</ele>
        <time>2019-09-05T20:06:26Z</time>
      </trkpt>
      <trkpt lat="36.7264060" lon="-4.4804580">
        <ele>80.1</ele>
        <time>2019-09-05T20:06:29Z</time>
      </trkpt>
      <trkpt lat="36.7264400" lon="-4.4804730">
        <ele>80.0</ele>
        <time>2019-09-05T20:06:31Z</time>
      </trkpt>
      <trkpt lat="36.7264690" lon="-4.4804940">
        <ele>81.4</ele>
        <time>2019-09-05T20:06:33Z</time>
      </trkpt>
      <trkpt lat="36.7265000" lon="-4.4805210">
        <ele>81.4</ele>
        <time>2019-09-05T20:06:36Z</time>
      </trkpt>
      <trkpt lat="36.7265130" lon="-4.4805570">
        <ele>81.4</ele>
        <time>2019-09-05T20:06:40Z</time>
      </trkpt>
      <trkpt lat="36.7265110" lon="-4.4805930">
        <ele>81.4</ele>
        <time>2019-09-05T20:06:42Z</time>
      </trkpt>
      <trkpt lat="36.7265210" lon="-4.4806250">
        <ele>81.4</ele>
        <time>2019-09-05T20:06:44Z</time>
      </trkpt>
      <trkpt lat="36.7265260" lon="-4.4806630">
        <ele>81.3</ele>
        <time>2019-09-05T20:06:46Z</time>
      </trkpt>
      <trkpt lat="36.7265230" lon="-4.4807120">
        <ele>81.3</ele>
        <time>2019-09-05T20:06:49Z</time>
      </trkpt>
      <trkpt lat="36.7265210" lon="-4.4807570">
        <ele>81.3</ele>
        <time>2019-09-05T20:06:52Z</time>
      </trkpt>
      <trkpt lat="36.7265220" lon="-4.4808040">
        <ele>81.3</ele>
        <time>2019-09-05T20:06:55Z</time>
      </trkpt>
      <trkpt lat="36.7265250" lon="-4.4808400">
        <ele>81.3</ele>
        <time>2019-09-05T20:06:57Z</time>
      </trkpt>
      <trkpt lat="36.7265260" lon="-4.4808750">
        <ele>81.2</ele>
        <time>2019-09-05T20:07:00Z</time>
      </trkpt>
      <trkpt lat="36.7265280" lon="-4.4809150">
        <ele>81.2</ele>
        <time>2019-09-05T20:07:03Z</time>
      </trkpt>
      <trkpt lat="36.7265140" lon="-4.4809570">
        <ele>81.1</ele>
        <time>2019-09-05T20:07:07Z</time>
      </trkpt>
      <trkpt lat="36.7265170" lon="-4.4810000">
        <ele>81.1</ele>
        <time>2019-09-05T20:07:10Z</time>
      </trkpt>
      <trkpt lat="36.7265090" lon="-4.4810490">
        <ele>81.0</ele>
        <time>2019-09-05T20:07:13Z</time>
      </trkpt>
      <trkpt lat="36.7265030" lon="-4.4810960">
        <ele>80.9</ele>
        <time>2019-09-05T20:07:16Z</time>
      </trkpt>
      <trkpt lat="36.7264980" lon="-4.4811420">
        <ele>80.8</ele>
        <time>2019-09-05T20:07:18Z</time>
      </trkpt>
      <trkpt lat="36.7264970" lon="-4.4811840">
        <ele>80.8</ele>
        <time>2019-09-05T20:07:20Z</time>
      </trkpt>
      <trkpt lat="36.7264970" lon="-4.4812280">
        <ele>80.7</ele>
        <time>2019-09-05T20:07:23Z</time>
      </trkpt>
      <trkpt lat="36.7264960" lon="-4.4812620">
        <ele>80.6</ele>
        <time>2019-09-05T20:07:25Z</time>
      </trkpt>
      <trkpt lat="36.7264950" lon="-4.4812970">
        <ele>80.5</ele>
        <time>2019-09-05T20:07:29Z</time>
      </trkpt>
      <trkpt lat="36.7264900" lon="-4.4813330">
        <ele>80.5</ele>
        <time>2019-09-05T20:07:32Z</time>
      </trkpt>
      <trkpt lat="36.7264830" lon="-4.4813740">
        <ele>80.4</ele>
        <time>2019-09-05T20:07:34Z</time>
      </trkpt>
      <trkpt lat="36.7264750" lon="-4.4814270">
        <ele>80.3</ele>
        <time>2019-09-05T20:07:37Z</time>
      </trkpt>
      <trkpt lat="36.7264650" lon="-4.4814750">
        <ele>80.3</ele>
        <time>2019-09-05T20:07:40Z</time>
      </trkpt>
      <trkpt lat="36.7264550" lon="-4.4815070">
        <ele>80.3</ele>
        <time>2019-09-05T20:07:42Z</time>
      </trkpt>
      <trkpt lat="36.7264520" lon="-4.4815520">
        <ele>80.3</ele>
        <time>2019-09-05T20:07:45Z</time>
      </trkpt>
      <trkpt lat="36.7264580" lon="-4.4815960">
        <ele>80.2</ele>
        <time>2019-09-05T20:07:49Z</time>
      </trkpt>
      <trkpt lat="36.7264570" lon="-4.4816310">
        <ele>80.2</ele>
        <time>2019-09-05T20:07:51Z</time>
      </trkpt>
      <trkpt lat="36.7264490" lon="-4.4816750">
        <ele>80.2</ele>
        <time>2019-09-05T20:07:54Z</time>
      </trkpt>
      <trkpt lat="36.7264440" lon="-4.4817100">
        <ele>80.2</ele>
        <time>2019-09-05T20:07:57Z</time>
      </trkpt>
      <trkpt lat="36.7264400" lon="-4.4817580">
        <ele>80.2</ele>
        <time>2019-09-05T20:08:00Z</time>
      </trkpt>
      <trkpt lat="36.7264370" lon="-4.4818000">
        <ele>80.1</ele>
        <time>2019-09-05T20:08:03Z</time>
      </trkpt>
      <trkpt lat="36.7264340" lon="-4.4818490">
        <ele>80.1</ele>
        <time>2019-09-05T20:08:06Z</time>
      </trkpt>
      <trkpt lat="36.7264290" lon="-4.4819010">
        <ele>80.1</ele>
        <time>2019-09-05T20:08:09Z</time>
      </trkpt>
      <trkpt lat="36.7264210" lon="-4.4819390">
        <ele>80.1</ele>
        <time>2019-09-05T20:08:11Z</time>
      </trkpt>
      <trkpt lat="36.7264140" lon="-4.4819760">
        <ele>80.0</ele>
        <time>2019-09-05T20:08:13Z</time>
      </trkpt>
      <trkpt lat="36.7264050" lon="-4.4820230">
        <ele>80.0</ele>
        <time>2019-09-05T20:08:16Z</time>
      </trkpt>
      <trkpt lat="36.7263990" lon="-4.4820600">
        <ele>80.0</ele>
        <time>2019-09-05T20:08:19Z</time>
      </trkpt>
      <trkpt lat="36.7263910" lon="-4.4820960">
        <ele>79.9</ele>
        <time>2019-09-05T20:08:22Z</time>
      </trkpt>
      <trkpt lat="36.7263910" lon="-4.4821310">
        <ele>79.8</ele>
        <time>2019-09-05T20:08:25Z</time>
      </trkpt>
      <trkpt lat="36.7263800" lon="-4.4821670">
        <ele>79.8</ele>
        <time>2019-09-05T20:08:28Z</time>
      </trkpt>
      <trkpt lat="36.7263670" lon="-4.4822160">
        <ele>79.7</ele>
        <time>2019-09-05T20:08:31Z</time>
      </trkpt>
      <trkpt lat="36.7263570" lon="-4.4822690">
        <ele>79.5</ele>
        <time>2019-09-05T20:08:34Z</time>
      </trkpt>
      <trkpt lat="36.7263480" lon="-4.4823060">
        <ele>79.4</ele>
        <time>2019-09-05T20:08:36Z</time>
      </trkpt>
      <trkpt lat="36.7263420" lon="-4.4823430">
        <ele>79.3</ele>
        <time>2019-09-05T20:08:38Z</time>
      </trkpt>
      <trkpt lat="36.7263390" lon="-4.4823890">
        <ele>79.2</ele>
        <time>2019-09-05T20:08:41Z</time>
      </trkpt>
      <trkpt lat="36.7263430" lon="-4.4824220">
        <ele>79.1</ele>
        <time>2019-09-05T20:08:44Z</time>
      </trkpt>
      <trkpt lat="36.7263390" lon="-4.4824610">
        <ele>79.1</ele>
        <time>2019-09-05T20:08:48Z</time>
      </trkpt>
      <trkpt lat="36.7263310" lon="-4.4824990">
        <ele>79.0</ele>
        <time>2019-09-05T20:08:51Z</time>
      </trkpt>
      <trkpt lat="36.7263190" lon="-4.4825440">
        <ele>78.9</ele>
        <time>2019-09-05T20:08:54Z</time>
      </trkpt>
      <trkpt lat="36.7263080" lon="-4.4825910">
        <ele>78.8</ele>
        <time>2019-09-05T20:08:57Z</time>
      </trkpt>
      <trkpt lat="36.7262990" lon="-4.4826360">
        <ele>78.7</ele>
        <time>2019-09-05T20:09:00Z</time>
      </trkpt>
      <trkpt lat="36.7262930" lon="-4.4826740">
        <ele>78.6</ele>
        <time>2019-09-05T20:09:03Z</time>
      </trkpt>
      <trkpt lat="36.7262800" lon="-4.4827170">
        <ele>78.5</ele>
        <time>2019-09-05T20:09:07Z</time>
      </trkpt>
      <trkpt lat="36.7262720" lon="-4.4827610">
        <ele>78.4</ele>
        <time>2019-09-05T20:09:10Z</time>
      </trkpt>
      <trkpt lat="36.7262580" lon="-4.4828050">
        <ele>78.3</ele>
        <time>2019-09-05T20:09:13Z</time>
      </trkpt>
      <trkpt lat="36.7262500" lon="-4.4828410">
        <ele>78.2</ele>
        <time>2019-09-05T20:09:15Z</time>
      </trkpt>
      <trkpt lat="36.7262320" lon="-4.4828790">
        <ele>78.1</ele>
        <time>2019-09-05T20:09:17Z</time>
      </trkpt>
      <trkpt lat="36.7262150" lon="-4.4829170">
        <ele>78.0</ele>
        <time>2019-09-05T20:09:20Z</time>
      </trkpt>
      <trkpt lat="36.7262080" lon="-4.4829500">
        <ele>77.9</ele>
        <time>2019-09-05T20:09:22Z</time>
      </trkpt>
      <trkpt lat="36.7261970" lon="-4.4829900">
        <ele>77.7</ele>
        <time>2019-09-05T20:09:25Z</time>
      </trkpt>
      <trkpt lat="36.7261850" lon="-4.4830230">
        <ele>77.6</ele>
        <time>2019-09-05T20:09:27Z</time>
      </trkpt>
      <trkpt lat="36.7261890" lon="-4.4830600">
        <ele>77.5</ele>
        <time>2019-09-05T20:09:30Z</time>
      </trkpt>
      <trkpt lat="36.7261780" lon="-4.4830920">
        <ele>77.4</ele>
        <time>2019-09-05T20:09:32Z</time>
      </trkpt>
      <trkpt lat="36.7261590" lon="-4.4831320">
        <ele>77.3</ele>
        <time>2019-09-05T20:09:35Z</time>
      </trkpt>
      <trkpt lat="36.7261380" lon="-4.4831640">
        <ele>77.2</ele>
        <time>2019-09-05T20:09:37Z</time>
      </trkpt>
      <trkpt lat="36.7261220" lon="-4.4831980">
        <ele>77.1</ele>
        <time>2019-09-05T20:09:39Z</time>
      </trkpt>
      <trkpt lat="36.7261050" lon="-4.4832300">
        <ele>77.0</ele>
        <time>2019-09-05T20:09:41Z</time>
      </trkpt>
      <trkpt lat="36.7260890" lon="-4.4832620">
        <ele>76.9</ele>
        <time>2019-09-05T20:09:43Z</time>
      </trkpt>
      <trkpt lat="36.7260690" lon="-4.4833010">
        <ele>76.8</ele>
        <time>2019-09-05T20:09:46Z</time>
      </trkpt>
      <trkpt lat="36.7260690" lon="-4.4833350">
        <ele>76.7</ele>
        <time>2019-09-05T20:09:49Z</time>
      </trkpt>
      <trkpt lat="36.7260630" lon="-4.4833810">
        <ele>76.7</ele>
        <time>2019-09-05T20:09:52Z</time>
      </trkpt>
      <trkpt lat="36.7260640" lon="-4.4834170">
        <ele>76.6</ele>
        <time>2019-09-05T20:09:54Z</time>
      </trkpt>
      <trkpt lat="36.7260640" lon="-4.4834530">
        <ele>76.6</ele>
        <time>2019-09-05T20:09:56Z</time>
      </trkpt>
      <trkpt lat="36.7260550" lon="-4.4834960">
        <ele>76.6</ele>
        <time>2019-09-05T20:09:59Z</time>
      </trkpt>
      <trkpt lat="36.7260430" lon="-4.4835310">
        <ele>76.5</ele>
        <time>2019-09-05T20:10:02Z</time>
      </trkpt>
      <trkpt lat="36.7260240" lon="-4.4835640">
        <ele>76.5</ele>
        <time>2019-09-05T20:10:05Z</time>
      </trkpt>
      <trkpt lat="36.7260110" lon="-4.4835930">
        <ele>76.5</ele>
        <time>2019-09-05T20:10:08Z</time>
      </trkpt>
      <trkpt lat="36.7259920" lon="-4.4836300">
        <ele>76.4</ele>
        <time>2019-09-05T20:10:11Z</time>
      </trkpt>
      <trkpt lat="36.7259750" lon="-4.4836600">
        <ele>76.3</ele>
        <time>2019-09-05T20:10:13Z</time>
      </trkpt>
      <trkpt lat="36.7259600" lon="-4.4837060">
        <ele>76.2</ele>
        <time>2019-09-05T20:10:16Z</time>
      </trkpt>
      <trkpt lat="36.7259510" lon="-4.4837410">
        <ele>76.1</ele>
        <time>2019-09-05T20:10:18Z</time>
      </trkpt>
      <trkpt lat="36.7259390" lon="-4.4837710">
        <ele>76.0</ele>
        <time>2019-09-05T20:10:20Z</time>
      </trkpt>
      <trkpt lat="36.7259280" lon="-4.4838070">
        <ele>75.9</ele>
        <time>2019-09-05T20:10:22Z</time>
      </trkpt>
      <trkpt lat="36.7259180" lon="-4.4838500">
        <ele>75.7</ele>
        <time>2019-09-05T20:10:24Z</time>
      </trkpt>
      <trkpt lat="36.7259060" lon="-4.4838890">
        <ele>75.5</ele>
        <time>2019-09-05T20:10:26Z</time>
      </trkpt>
      <trkpt lat="36.7258950" lon="-4.4839200">
        <ele>75.4</ele>
        <time>2019-09-05T20:10:28Z</time>
      </trkpt>
      <trkpt lat="36.7258740" lon="-4.4839590">
        <ele>75.2</ele>
        <time>2019-09-05T20:10:31Z</time>
      </trkpt>
      <trkpt lat="36.7258680" lon="-4.4840020">
        <ele>75.0</ele>
        <time>2019-09-05T20:10:34Z</time>
      </trkpt>
      <trkpt lat="36.7258690" lon="-4.4840420">
        <ele>74.9</ele>
        <time>2019-09-05T20:10:37Z</time>
      </trkpt>
      <trkpt lat="36.7258660" lon="-4.4840850">
        <ele>74.7</ele>
        <time>2019-09-05T20:10:40Z</time>
      </trkpt>
      <trkpt lat="36.7258580" lon="-4.4841190">
        <ele>74.7</ele>
        <time>2019-09-05T20:10:43Z</time>
      </trkpt>
      <trkpt lat="36.7258470" lon="-4.4841570">
        <ele>74.6</ele>
        <time>2019-09-05T20:10:46Z</time>
      </trkpt>
      <trkpt lat="36.7258260" lon="-4.4841900">
        <ele>74.6</ele>
        <time>2019-09-05T20:10:49Z</time>
      </trkpt>
      <trkpt lat="36.7258040" lon="-4.4842260">
        <ele>74.5</ele>
        <time>2019-09-05T20:10:52Z</time>
      </trkpt>
      <trkpt lat="36.7257840" lon="-4.4842620">
        <ele>74.5</ele>
        <time>2019-09-05T20:10:55Z</time>
      </trkpt>
      <trkpt lat="36.7257680" lon="-4.4842950">
        <ele>74.4</ele>
        <time>2019-09-05T20:10:58Z</time>
      </trkpt>
      <trkpt lat="36.7257480" lon="-4.4843270">
        <ele>74.4</ele>
        <time>2019-09-05T20:11:01Z</time>
      </trkpt>
      <trkpt lat="36.7257360" lon="-4.4843610">
        <ele>74.4</ele>
        <time>2019-09-05T20:11:03Z</time>
      </trkpt>
      <trkpt lat="36.7257250" lon="-4.4843950">
        <ele>74.3</ele>
        <time>2019-09-05T20:11:05Z</time>
      </trkpt>
      <trkpt lat="36.7257160" lon="-4.4844310">
        <ele>74.3</ele>
        <time>2019-09-05T20:11:07Z</time>
      </trkpt>
      <trkpt lat="36.7257340" lon="-4.4844800">
        <ele>74.2</ele>
        <time>2019-09-05T20:11:10Z</time>
      </trkpt>
      <trkpt lat="36.7257500" lon="-4.4845180">
        <ele>74.1</ele>
        <time>2019-09-05T20:11:12Z</time>
      </trkpt>
      <trkpt lat="36.7257780" lon="-4.4845470">
        <ele>74.0</ele>
        <time>2019-09-05T20:11:16Z</time>
      </trkpt>
      <trkpt lat="36.7258080" lon="-4.4845730">
        <ele>74.0</ele>
        <time>2019-09-05T20:11:19Z</time>
      </trkpt>
      <trkpt lat="36.7258340" lon="-4.4845920">
        <ele>74.1</ele>
        <time>2019-09-05T20:11:22Z</time>
      </trkpt>
      <trkpt lat="36.7258610" lon="-4.4846210">
        <ele>74.3</ele>
        <time>2019-09-05T20:11:26Z</time>
      </trkpt>
      <trkpt lat="36.7258750" lon="-4.4846540">
        <ele>74.4</ele>
        <time>2019-09-05T20:11:29Z</time>
      </trkpt>
      <trkpt lat="36.7258810" lon="-4.4847040">
        <ele>74.6</ele>
        <time>2019-09-05T20:11:32Z</time>
      </trkpt>
      <trkpt lat="36.7259020" lon="-4.4847290">
        <ele>74.7</ele>
        <time>2019-09-05T20:11:34Z</time>
      </trkpt>
      <trkpt lat="36.7259410" lon="-4.4847530">
        <ele>74.8</ele>
        <time>2019-09-05T20:11:37Z</time>
      </trkpt>
      <trkpt lat="36.7259430" lon="-4.4847880">
        <ele>74.9</ele>
        <time>2019-09-05T20:11:39Z</time>
      </trkpt>
      <trkpt lat="36.7259400" lon="-4.4848260">
        <ele>74.9</ele>
        <time>2019-09-05T20:11:41Z</time>
      </trkpt>
      <trkpt lat="36.7259390" lon="-4.4848780">
        <ele>75.1</ele>
        <time>2019-09-05T20:11:44Z</time>
      </trkpt>
      <trkpt lat="36.7259530" lon="-4.4849090">
        <ele>75.1</ele>
        <time>2019-09-05T20:11:46Z</time>
      </trkpt>
      <trkpt lat="36.7259640" lon="-4.4849460">
        <ele>75.2</ele>
        <time>2019-09-05T20:11:49Z</time>
      </trkpt>
      <trkpt lat="36.7259730" lon="-4.4849830">
        <ele>75.3</ele>
        <time>2019-09-05T20:11:52Z</time>
      </trkpt>
      <trkpt lat="36.7259510" lon="-4.4850220">
        <ele>75.5</ele>
        <time>2019-09-05T20:11:56Z</time>
      </trkpt>
      <trkpt lat="36.7259210" lon="-4.4850410">
        <ele>75.4</ele>
        <time>2019-09-05T20:11:59Z</time>
      </trkpt>
      <trkpt lat="36.7258970" lon="-4.4850630">
        <ele>75.3</ele>
        <time>2019-09-05T20:12:02Z</time>
      </trkpt>
      <trkpt lat="36.7258700" lon="-4.4850860">
        <ele>75.2</ele>
        <time>2019-09-05T20:12:05Z</time>
      </trkpt>
      <trkpt lat="36.7258450" lon="-4.4851120">
        <ele>75.1</ele>
        <time>2019-09-05T20:12:08Z</time>
      </trkpt>
      <trkpt lat="36.7258190" lon="-4.4851350">
        <ele>75.0</ele>
        <time>2019-09-05T20:12:10Z</time>
      </trkpt>
      <trkpt lat="36.7257900" lon="-4.4851550">
        <ele>74.9</ele>
        <time>2019-09-05T20:12:12Z</time>
      </trkpt>
      <trkpt lat="36.7257540" lon="-4.4851680">
        <ele>74.6</ele>
        <time>2019-09-05T20:12:14Z</time>
      </trkpt>
      <trkpt lat="36.7257230" lon="-4.4851880">
        <ele>74.4</ele>
        <time>2019-09-05T20:12:16Z</time>
      </trkpt>
      <trkpt lat="36.7256950" lon="-4.4852160">
        <ele>74.3</ele>
        <time>2019-09-05T20:12:18Z</time>
      </trkpt>
      <trkpt lat="36.7256690" lon="-4.4852450">
        <ele>74.1</ele>
        <time>2019-09-05T20:12:20Z</time>
      </trkpt>
      <trkpt lat="36.7256490" lon="-4.4852740">
        <ele>74.0</ele>
        <time>2019-09-05T20:12:22Z</time>
      </trkpt>
      <trkpt lat="36.7256470" lon="-4.4853120">
        <ele>74.0</ele>
        <time>2019-09-05T20:12:24Z</time>
      </trkpt>
      <trkpt lat="36.7256440" lon="-4.4853490">
        <ele>73.9</ele>
        <time>2019-09-05T20:12:27Z</time>
      </trkpt>
      <trkpt lat="36.7256320" lon="-4.4853880">
        <ele>73.8</ele>
        <time>2019-09-05T20:12:30Z</time>
      </trkpt>
      <trkpt lat="36.7256120" lon="-4.4854300">
        <ele>73.6</ele>
        <time>2019-09-05T20:12:33Z</time>
      </trkpt>
      <trkpt lat="36.7255930" lon="-4.4854720">
        <ele>73.4</ele>
        <time>2019-09-05T20:12:36Z</time>
      </trkpt>
      <trkpt lat="36.7255770" lon="-4.4855140">
        <ele>73.3</ele>
        <time>2019-09-05T20:12:39Z</time>
      </trkpt>
      <trkpt lat="36.7255660" lon="-4.4855510">
        <ele>73.1</ele>
        <time>2019-09-05T20:12:41Z</time>
      </trkpt>
      <trkpt lat="36.7255540" lon="-4.4855900">
        <ele>72.9</ele>
        <time>2019-09-05T20:12:43Z</time>
      </trkpt>
      <trkpt lat="36.7255390" lon="-4.4856220">
        <ele>72.8</ele>
        <time>2019-09-05T20:12:45Z</time>
      </trkpt>
      <trkpt lat="36.7255350" lon="-4.4856570">
        <ele>72.7</ele>
        <time>2019-09-05T20:12:47Z</time>
      </trkpt>
      <trkpt lat="36.7255170" lon="-4.4856900">
        <ele>72.6</ele>
        <time>2019-09-05T20:12:50Z</time>
      </trkpt>
      <trkpt lat="36.7254960" lon="-4.4857190">
        <ele>72.5</ele>
        <time>2019-09-05T20:12:53Z</time>
      </trkpt>
      <trkpt lat="36.7254770" lon="-4.4857570">
        <ele>72.4</ele>
        <time>2019-09-05T20:12:56Z</time>
      </trkpt>
      <trkpt lat="36.7254610" lon="-4.4857890">
        <ele>72.4</ele>
        <time>2019-09-05T20:12:59Z</time>
      </trkpt>
      <trkpt lat="36.7254470" lon="-4.4858260">
        <ele>72.4</ele>
        <time>2019-09-05T20:13:02Z</time>
      </trkpt>
      <trkpt lat="36.7254330" lon="-4.4858640">
        <ele>72.3</ele>
        <time>2019-09-05T20:13:05Z</time>
      </trkpt>
      <trkpt lat="36.7254220" lon="-4.4858980">
        <ele>72.3</ele>
        <time>2019-09-05T20:13:07Z</time>
      </trkpt>
      <trkpt lat="36.7254070" lon="-4.4859330">
        <ele>72.2</ele>
        <time>2019-09-05T20:13:09Z</time>
      </trkpt>
      <trkpt lat="36.7253900" lon="-4.4859680">
        <ele>72.1</ele>
        <time>2019-09-05T20:13:12Z</time>
      </trkpt>
      <trkpt lat="36.7253770" lon="-4.4860050">
        <ele>72.0</ele>
        <time>2019-09-05T20:13:15Z</time>
      </trkpt>
      <trkpt lat="36.7253660" lon="-4.4860400">
        <ele>71.8</ele>
        <time>2019-09-05T20:13:17Z</time>
      </trkpt>
      <trkpt lat="36.7253470" lon="-4.4860830">
        <ele>71.5</ele>
        <time>2019-09-05T20:13:20Z</time>
      </trkpt>
      <trkpt lat="36.7253350" lon="-4.4861140">
        <ele>71.2</ele>
        <time>2019-09-05T20:13:23Z</time>
      </trkpt>
      <trkpt lat="36.7253300" lon="-4.4861540">
        <ele>70.8</ele>
        <time>2019-09-05T20:13:26Z</time>
      </trkpt>
      <trkpt lat="36.7253190" lon="-4.4861970">
        <ele>70.4</ele>
        <time>2019-09-05T20:13:29Z</time>
      </trkpt>
      <trkpt lat="36.7253040" lon="-4.4862360">
        <ele>70.0</ele>
        <time>2019-09-05T20:13:32Z</time>
      </trkpt>
      <trkpt lat="36.7252920" lon="-4.4862670">
        <ele>69.8</ele>
        <time>2019-09-05T20:13:35Z</time>
      </trkpt>
      <trkpt lat="36.7252800" lon="-4.4862980">
        <ele>69.6</ele>
        <time>2019-09-05T20:13:37Z</time>
      </trkpt>
      <trkpt lat="36.7252650" lon="-4.4863350">
        <ele>69.5</ele>
        <time>2019-09-05T20:13:39Z</time>
      </trkpt>
      <trkpt lat="36.7252540" lon="-4.4863750">
        <ele>69.3</ele>
        <time>2019-09-05T20:13:41Z</time>
      </trkpt>
      <trkpt lat="36.7252370" lon="-4.4864070">
        <ele>69.1</ele>
        <time>2019-09-05T20:13:43Z</time>
      </trkpt>
      <trkpt lat="36.7252230" lon="-4.4864540">
        <ele>68.9</ele>
        <time>2019-09-05T20:13:46Z</time>
      </trkpt>
      <trkpt lat="36.7252100" lon="-4.4864900">
        <ele>68.7</ele>
        <time>2019-09-05T20:13:49Z</time>
      </trkpt>
      <trkpt lat="36.7251980" lon="-4.4865220">
        <ele>68.5</ele>
        <time>2019-09-05T20:13:52Z</time>
      </trkpt>
      <trkpt lat="36.7251850" lon="-4.4865540">
        <ele>68.4</ele>
        <time>2019-09-05T20:13:55Z</time>
      </trkpt>
      <trkpt lat="36.7251710" lon="-4.4865870">
        <ele>68.2</ele>
        <time>2019-09-05T20:13:58Z</time>
      </trkpt>
      <trkpt lat="36.7251550" lon="-4.4866280">
        <ele>67.9</ele>
        <time>2019-09-05T20:14:01Z</time>
      </trkpt>
      <trkpt lat="36.7251430" lon="-4.4866620">
        <ele>67.7</ele>
        <time>2019-09-05T20:14:03Z</time>
      </trkpt>
      <trkpt lat="36.7251330" lon="-4.4866960">
        <ele>67.6</ele>
        <time>2019-09-05T20:14:05Z</time>
      </trkpt>
      <trkpt lat="36.7251180" lon="-4.4867340">
        <ele>67.3</ele>
        <time>2019-09-05T20:14:08Z</time>
      </trkpt>
      <trkpt lat="36.7251040" lon="-4.4867750">
        <ele>67.1</ele>
        <time>2019-09-05T20:14:11Z</time>
      </trkpt>
      <trkpt lat="36.7250940" lon="-4.4868130">
        <ele>66.9</ele>
        <time>2019-09-05T20:14:14Z</time>
      </trkpt>
      <trkpt lat="36.7250750" lon="-4.4868460">
        <ele>66.7</ele>
        <time>2019-09-05T20:14:17Z</time>
      </trkpt>
      <trkpt lat="36.7250560" lon="-4.4868860">
        <ele>66.5</ele>
        <time>2019-09-05T20:14:20Z</time>
      </trkpt>
      <trkpt lat="36.7250400" lon="-4.4869240">
        <ele>66.3</ele>
        <time>2019-09-05T20:14:23Z</time>
      </trkpt>
      <trkpt lat="36.7250250" lon="-4.4869560">
        <ele>66.2</ele>
        <time>2019-09-05T20:14:25Z</time>
      </trkpt>
      <trkpt lat="36.7250150" lon="-4.4869920">
        <ele>66.0</ele>
        <time>2019-09-05T20:14:27Z</time>
      </trkpt>
      <trkpt lat="36.7250000" lon="-4.4870400">
        <ele>65.8</ele>
        <time>2019-09-05T20:14:30Z</time>
      </trkpt>
      <trkpt lat="36.7249870" lon="-4.4870830">
        <ele>65.6</ele>
        <time>2019-09-05T20:14:32Z</time>
      </trkpt>
      <trkpt lat="36.7249740" lon="-4.4871220">
        <ele>65.5</ele>
        <time>2019-09-05T20:14:35Z</time>
      </trkpt>
      <trkpt lat="36.7249650" lon="-4.4871600">
        <ele>65.3</ele>
        <time>2019-09-05T20:14:39Z</time>
      </trkpt>
      <trkpt lat="36.7249570" lon="-4.4871990">
        <ele>65.2</ele>
        <time>2019-09-05T20:14:42Z</time>
      </trkpt>
      <trkpt lat="36.7249430" lon="-4.4872380">
        <ele>65.1</ele>
        <time>2019-09-05T20:14:45Z</time>
      </trkpt>
      <trkpt lat="36.7249260" lon="-4.4872790">
        <ele>65.0</ele>
        <time>2019-09-05T20:14:48Z</time>
      </trkpt>
      <trkpt lat="36.7249240" lon="-4.4873180">
        <ele>64.9</ele>
        <time>2019-09-05T20:14:50Z</time>
      </trkpt>
      <trkpt lat="36.7249200" lon="-4.4873680">
        <ele>64.7</ele>
        <time>2019-09-05T20:14:53Z</time>
      </trkpt>
      <trkpt lat="36.7249180" lon="-4.4874030">
        <ele>64.6</ele>
        <time>2019-09-05T20:14:55Z</time>
      </trkpt>
      <trkpt lat="36.7249110" lon="-4.4874440">
        <ele>64.5</ele>
        <time>2019-09-05T20:14:59Z</time>
      </trkpt>
      <trkpt lat="36.7248970" lon="-4.4874840">
        <ele>64.4</ele>
        <time>2019-09-05T20:15:02Z</time>
      </trkpt>
      <trkpt lat="36.7249030" lon="-4.4875300">
        <ele>64.3</ele>
        <time>2019-09-05T20:15:04Z</time>
      </trkpt>
      <trkpt lat="36.7249130" lon="-4.4875690">
        <ele>64.2</ele>
        <time>2019-09-05T20:15:07Z</time>
      </trkpt>
      <trkpt lat="36.7249120" lon="-4.4876110">
        <ele>64.1</ele>
        <time>2019-09-05T20:15:10Z</time>
      </trkpt>
      <trkpt lat="36.7249210" lon="-4.4876530">
        <ele>63.9</ele>
        <time>2019-09-05T20:15:12Z</time>
      </trkpt>
      <trkpt lat="36.7249350" lon="-4.4876830">
        <ele>63.9</ele>
        <time>2019-09-05T20:15:14Z</time>
      </trkpt>
      <trkpt lat="36.7249490" lon="-4.4877140">
        <ele>63.8</ele>
        <time>2019-09-05T20:15:16Z</time>
      </trkpt>
      <trkpt lat="36.7249690" lon="-4.4877450">
        <ele>63.4</ele>
        <time>2019-09-05T20:15:18Z</time>
      </trkpt>
      <trkpt lat="36.7249950" lon="-4.4877690">
        <ele>63.3</ele>
        <time>2019-09-05T20:15:20Z</time>
      </trkpt>
      <trkpt lat="36.7250200" lon="-4.4877830">
        <ele>63.2</ele>
        <time>2019-09-05T20:15:22Z</time>
      </trkpt>
      <trkpt lat="36.7250520" lon="-4.4878100">
        <ele>63.1</ele>
        <time>2019-09-05T20:15:25Z</time>
      </trkpt>
      <trkpt lat="36.7250720" lon="-4.4878340">
        <ele>63.0</ele>
        <time>2019-09-05T20:15:28Z</time>
      </trkpt>
      <trkpt lat="36.7250730" lon="-4.4878780">
        <ele>63.0</ele>
        <time>2019-09-05T20:15:31Z</time>
      </trkpt>
      <trkpt lat="36.7250580" lon="-4.4879190">
        <ele>63.3</ele>
        <time>2019-09-05T20:15:34Z</time>
      </trkpt>
      <trkpt lat="36.7250530" lon="-4.4879620">
        <ele>63.4</ele>
        <time>2019-09-05T20:15:36Z</time>
      </trkpt>
      <trkpt lat="36.7250550" lon="-4.4880070">
        <ele>63.4</ele>
        <time>2019-09-05T20:15:38Z</time>
      </trkpt>
      <trkpt lat="36.7250650" lon="-4.4880400">
        <ele>63.5</ele>
        <time>2019-09-05T20:15:40Z</time>
      </trkpt>
      <trkpt lat="36.7250870" lon="-4.4880640">
        <ele>63.5</ele>
        <time>2019-09-05T20:15:42Z</time>
      </trkpt>
      <trkpt lat="36.7251150" lon="-4.4880830">
        <ele>63.6</ele>
        <time>2019-09-05T20:15:44Z</time>
      </trkpt>
      <trkpt lat="36.7251460" lon="-4.4880950">
        <ele>63.6</ele>
        <time>2019-09-05T20:15:47Z</time>
      </trkpt>
      <trkpt lat="36.7251810" lon="-4.4881080">
        <ele>63.7</ele>
        <time>2019-09-05T20:15:50Z</time>
      </trkpt>
      <trkpt lat="36.7252150" lon="-4.4881220">
        <ele>63.7</ele>
        <time>2019-09-05T20:15:53Z</time>
      </trkpt>
      <trkpt lat="36.7252490" lon="-4.4881350">
        <ele>63.8</ele>
        <time>2019-09-05T20:15:55Z</time>
      </trkpt>
      <trkpt lat="36.7252800" lon="-4.4881430">
        <ele>63.9</ele>
        <time>2019-09-05T20:15:58Z</time>
      </trkpt>
      <trkpt lat="36.7253130" lon="-4.4881520">
        <ele>63.9</ele>
        <time>2019-09-05T20:16:00Z</time>
      </trkpt>
      <trkpt lat="36.7253450" lon="-4.4881580">
        <ele>64.0</ele>
        <time>2019-09-05T20:16:02Z</time>
      </trkpt>
      <trkpt lat="36.7253750" lon="-4.4881630">
        <ele>64.0</ele>
        <time>2019-09-05T20:16:04Z</time>
      </trkpt>
      <trkpt lat="36.7254140" lon="-4.4881780">
        <ele>64.1</ele>
        <time>2019-09-05T20:16:07Z</time>
      </trkpt>
      <trkpt lat="36.7254430" lon="-4.4881860">
        <ele>64.2</ele>
        <time>2019-09-05T20:16:10Z</time>
      </trkpt>
      <trkpt lat="36.7254710" lon="-4.4881940">
        <ele>64.2</ele>
        <time>2019-09-05T20:16:13Z</time>
      </trkpt>
      <trkpt lat="36.7255040" lon="-4.4882030">
        <ele>64.3</ele>
        <time>2019-09-05T20:16:16Z</time>
      </trkpt>
      <trkpt lat="36.7255440" lon="-4.4882110">
        <ele>64.4</ele>
        <time>2019-09-05T20:16:19Z</time>
      </trkpt>
      <trkpt lat="36.7255700" lon="-4.4882200">
        <ele>64.4</ele>
        <time>2019-09-05T20:16:21Z</time>
      </trkpt>
      <trkpt lat="36.7256080" lon="-4.4882400">
        <ele>64.5</ele>
        <time>2019-09-05T20:16:26Z</time>
      </trkpt>
      <trkpt lat="36.7256350" lon="-4.4882460">
        <ele>64.5</ele>
        <time>2019-09-05T20:16:28Z</time>
      </trkpt>
      <trkpt lat="36.7256650" lon="-4.4882460">
        <ele>64.6</ele>
        <time>2019-09-05T20:16:30Z</time>
      </trkpt>
      <trkpt lat="36.7256910" lon="-4.4882520">
        <ele>64.6</ele>
        <time>2019-09-05T20:16:32Z</time>
      </trkpt>
      <trkpt lat="36.7257320" lon="-4.4882570">
        <ele>64.7</ele>
        <time>2019-09-05T20:16:34Z</time>
      </trkpt>
      <trkpt lat="36.7257690" lon="-4.4882620">
        <ele>64.7</ele>
        <time>2019-09-05T20:16:36Z</time>
      </trkpt>
      <trkpt lat="36.7257970" lon="-4.4882660">
        <ele>64.8</ele>
        <time>2019-09-05T20:16:38Z</time>
      </trkpt>
      <trkpt lat="36.7258340" lon="-4.4882700">
        <ele>64.8</ele>
        <time>2019-09-05T20:16:41Z</time>
      </trkpt>
      <trkpt lat="36.7258610" lon="-4.4882800">
        <ele>64.9</ele>
        <time>2019-09-05T20:16:43Z</time>
      </trkpt>
      <trkpt lat="36.7258940" lon="-4.4882920">
        <ele>64.9</ele>
        <time>2019-09-05T20:16:46Z</time>
      </trkpt>
      <trkpt lat="36.7259220" lon="-4.4883020">
        <ele>65.0</ele>
        <time>2019-09-05T20:16:48Z</time>
      </trkpt>
      <trkpt lat="36.7259580" lon="-4.4883170">
        <ele>65.0</ele>
        <time>2019-09-05T20:16:52Z</time>
      </trkpt>
      <trkpt lat="36.7259930" lon="-4.4883280">
        <ele>65.1</ele>
        <time>2019-09-05T20:16:55Z</time>
      </trkpt>
      <trkpt lat="36.7260230" lon="-4.4883390">
        <ele>65.2</ele>
        <time>2019-09-05T20:16:58Z</time>
      </trkpt>
      <trkpt lat="36.7260540" lon="-4.4883510">
        <ele>65.2</ele>
        <time>2019-09-05T20:17:01Z</time>
      </trkpt>
      <trkpt lat="36.7260900" lon="-4.4883570">
        <ele>65.3</ele>
        <time>2019-09-05T20:17:04Z</time>
      </trkpt>
      <trkpt lat="36.7261190" lon="-4.4883630">
        <ele>65.3</ele>
        <time>2019-09-05T20:17:07Z</time>
      </trkpt>
      <trkpt lat="36.7261590" lon="-4.4883720">
        <ele>65.4</ele>
        <time>2019-09-05T20:17:10Z</time>
      </trkpt>
      <trkpt lat="36.7261970" lon="-4.4883790">
        <ele>65.4</ele>
        <time>2019-09-05T20:17:12Z</time>
      </trkpt>
      <trkpt lat="36.7262390" lon="-4.4883850">
        <ele>65.5</ele>
        <time>2019-09-05T20:17:15Z</time>
      </trkpt>
      <trkpt lat="36.7262680" lon="-4.4883870">
        <ele>65.5</ele>
        <time>2019-09-05T20:17:18Z</time>
      </trkpt>
      <trkpt lat="36.7263070" lon="-4.4884000">
        <ele>65.5</ele>
        <time>2019-09-05T20:17:21Z</time>
      </trkpt>
      <trkpt lat="36.7263370" lon="-4.4884100">
        <ele>65.6</ele>
        <time>2019-09-05T20:17:23Z</time>
      </trkpt>
      <trkpt lat="36.7263700" lon="-4.4884160">
        <ele>65.6</ele>
        <time>2019-09-05T20:17:25Z</time>
      </trkpt>
      <trkpt lat="36.7263990" lon="-4.4884280">
        <ele>65.6</ele>
        <time>2019-09-05T20:17:27Z</time>
      </trkpt>
      <trkpt lat="36.7264260" lon="-4.4884380">
        <ele>65.6</ele>
        <time>2019-09-05T20:17:30Z</time>
      </trkpt>
      <trkpt lat="36.7264580" lon="-4.4884340">
        <ele>65.6</ele>
        <time>2019-09-05T20:17:35Z</time>
      </trkpt>
      <trkpt lat="36.7264860" lon="-4.4884480">
        <ele>65.7</ele>
        <time>2019-09-05T20:17:38Z</time>
      </trkpt>
      <trkpt lat="36.7265140" lon="-4.4884510">
        <ele>65.7</ele>
        <time>2019-09-05T20:17:40Z</time>
      </trkpt>
      <trkpt lat="36.7265600" lon="-4.4884510">
        <ele>65.7</ele>
        <time>2019-09-05T20:17:43Z</time>
      </trkpt>
      <trkpt lat="36.7265980" lon="-4.4884480">
        <ele>65.7</ele>
        <time>2019-09-05T20:17:46Z</time>
      </trkpt>
      <trkpt lat="36.7266260" lon="-4.4884480">
        <ele>65.7</ele>
        <time>2019-09-05T20:17:48Z</time>
      </trkpt>
      <trkpt lat="36.7266610" lon="-4.4884570">
        <ele>65.8</ele>
        <time>2019-09-05T20:17:51Z</time>
      </trkpt>
      <trkpt lat="36.7266930" lon="-4.4884690">
        <ele>65.8</ele>
        <time>2019-09-05T20:17:54Z</time>
      </trkpt>
      <trkpt lat="36.7267300" lon="-4.4884840">
        <ele>65.8</ele>
        <time>2019-09-05T20:17:57Z</time>
      </trkpt>
      <trkpt lat="36.7267570" lon="-4.4884910">
        <ele>65.8</ele>
        <time>2019-09-05T20:17:59Z</time>
      </trkpt>
      <trkpt lat="36.7267860" lon="-4.4884950">
        <ele>65.9</ele>
        <time>2019-09-05T20:18:01Z</time>
      </trkpt>
      <trkpt lat="36.7268240" lon="-4.4884990">
        <ele>65.9</ele>
        <time>2019-09-05T20:18:04Z</time>
      </trkpt>
      <trkpt lat="36.7268570" lon="-4.4885050">
        <ele>65.9</ele>
        <time>2019-09-05T20:18:07Z</time>
      </trkpt>
      <trkpt lat="36.7268900" lon="-4.4885070">
        <ele>66.0</ele>
        <time>2019-09-05T20:18:10Z</time>
      </trkpt>
      <trkpt lat="36.7269260" lon="-4.4885080">
        <ele>66.0</ele>
        <time>2019-09-05T20:18:13Z</time>
      </trkpt>
      <trkpt lat="36.7269560" lon="-4.4885150">
        <ele>66.0</ele>
        <time>2019-09-05T20:18:15Z</time>
      </trkpt>
      <trkpt lat="36.7269830" lon="-4.4885280">
        <ele>66.0</ele>
        <time>2019-09-05T20:18:17Z</time>
      </trkpt>
      <trkpt lat="36.7270130" lon="-4.4885310">
        <ele>66.0</ele>
        <time>2019-09-05T20:18:20Z</time>
      </trkpt>
      <trkpt lat="36.7270540" lon="-4.4885420">
        <ele>66.1</ele>
        <time>2019-09-05T20:18:23Z</time>
      </trkpt>
      <trkpt lat="36.7270800" lon="-4.4885540">
        <ele>66.1</ele>
        <time>2019-09-05T20:18:25Z</time>
      </trkpt>
      <trkpt lat="36.7271090" lon="-4.4885660">
        <ele>66.1</ele>
        <time>2019-09-05T20:18:28Z</time>
      </trkpt>
      <trkpt lat="36.7271450" lon="-4.4885720">
        <ele>66.1</ele>
        <time>2019-09-05T20:18:31Z</time>
      </trkpt>
      <trkpt lat="36.7271730" lon="-4.4885720">
        <ele>66.2</ele>
        <time>2019-09-05T20:18:34Z</time>
      </trkpt>
      <trkpt lat="36.7272020" lon="-4.4885790">
        <ele>66.2</ele>
        <time>2019-09-05T20:18:37Z</time>
      </trkpt>
      <trkpt lat="36.7272330" lon="-4.4885860">
        <ele>66.2</ele>
        <time>2019-09-05T20:18:39Z</time>
      </trkpt>
      <trkpt lat="36.7272630" lon="-4.4885890">
        <ele>66.3</ele>
        <time>2019-09-05T20:18:41Z</time>
      </trkpt>
      <trkpt lat="36.7272920" lon="-4.4885990">
        <ele>66.3</ele>
        <time>2019-09-05T20:18:43Z</time>
      </trkpt>
      <trkpt lat="36.7273250" lon="-4.4886080">
        <ele>66.4</ele>
        <time>2019-09-05T20:18:45Z</time>
      </trkpt>
      <trkpt lat="36.7273530" lon="-4.4886170">
        <ele>66.4</ele>
        <time>2019-09-05T20:18:47Z</time>
      </trkpt>
      <trkpt lat="36.7273880" lon="-4.4886130">
        <ele>66.5</ele>
        <time>2019-09-05T20:18:50Z</time>
      </trkpt>
      <trkpt lat="36.7274220" lon="-4.4886140">
        <ele>66.6</ele>
        <time>2019-09-05T20:18:53Z</time>
      </trkpt>
      <trkpt lat="36.7274600" lon="-4.4886200">
        <ele>66.7</ele>
        <time>2019-09-05T20:18:56Z</time>
      </trkpt>
      <trkpt lat="36.7274890" lon="-4.4886290">
        <ele>66.7</ele>
        <time>2019-09-05T20:18:59Z</time>
      </trkpt>
      <trkpt lat="36.7275170" lon="-4.4886310">
        <ele>66.8</ele>
        <time>2019-09-05T20:19:02Z</time>
      </trkpt>
      <trkpt lat="36.7275470" lon="-4.4886370">
        <ele>66.9</ele>
        <time>2019-09-05T20:19:04Z</time>
      </trkpt>
      <trkpt lat="36.7275830" lon="-4.4886520">
        <ele>67.0</ele>
        <time>2019-09-05T20:19:06Z</time>
      </trkpt>
      <trkpt lat="36.7276200" lon="-4.4886650">
        <ele>67.1</ele>
        <time>2019-09-05T20:19:08Z</time>
      </trkpt>
      <trkpt lat="36.7276570" lon="-4.4886730">
        <ele>67.1</ele>
        <time>2019-09-05T20:19:11Z</time>
      </trkpt>
      <trkpt lat="36.7276880" lon="-4.4886750">
        <ele>67.2</ele>
        <time>2019-09-05T20:19:13Z</time>
      </trkpt>
      <trkpt lat="36.7277280" lon="-4.4886790">
        <ele>67.3</ele>
        <time>2019-09-05T20:19:16Z</time>
      </trkpt>
      <trkpt lat="36.7277600" lon="-4.4886740">
        <ele>67.4</ele>
        <time>2019-09-05T20:19:19Z</time>
      </trkpt>
      <trkpt lat="36.7277950" lon="-4.4886760">
        <ele>67.5</ele>
        <time>2019-09-05T20:19:22Z</time>
      </trkpt>
      <trkpt lat="36.7278290" lon="-4.4886890">
        <ele>67.6</ele>
        <time>2019-09-05T20:19:25Z</time>
      </trkpt>
      <trkpt lat="36.7278660" lon="-4.4886980">
        <ele>67.8</ele>
        <time>2019-09-05T20:19:29Z</time>
      </trkpt>
      <trkpt lat="36.7278930" lon="-4.4887060">
        <ele>67.8</ele>
        <time>2019-09-05T20:19:31Z</time>
      </trkpt>
      <trkpt lat="36.7279330" lon="-4.4887100">
        <ele>68.0</ele>
        <time>2019-09-05T20:19:34Z</time>
      </trkpt>
      <trkpt lat="36.7279610" lon="-4.4887100">
        <ele>68.1</ele>
        <time>2019-09-05T20:19:36Z</time>
      </trkpt>
      <trkpt lat="36.7279930" lon="-4.4887120">
        <ele>68.2</ele>
        <time>2019-09-05T20:19:38Z</time>
      </trkpt>
      <trkpt lat="36.7280220" lon="-4.4887130">
        <ele>68.3</ele>
        <time>2019-09-05T20:19:40Z</time>
      </trkpt>
      <trkpt lat="36.7280540" lon="-4.4887180">
        <ele>68.5</ele>
        <time>2019-09-05T20:19:42Z</time>
      </trkpt>
      <trkpt lat="36.7280870" lon="-4.4887200">
        <ele>68.6</ele>
        <time>2019-09-05T20:19:45Z</time>
      </trkpt>
      <trkpt lat="36.7281200" lon="-4.4887350">
        <ele>68.8</ele>
        <time>2019-09-05T20:19:48Z</time>
      </trkpt>
      <trkpt lat="36.7281510" lon="-4.4887420">
        <ele>68.9</ele>
        <time>2019-09-05T20:19:51Z</time>
      </trkpt>
      <trkpt lat="36.7281860" lon="-4.4887500">
        <ele>69.1</ele>
        <time>2019-09-05T20:19:55Z</time>
      </trkpt>
      <trkpt lat="36.7282220" lon="-4.4887540">
        <ele>69.2</ele>
        <time>2019-09-05T20:19:59Z</time>
      </trkpt>
      <trkpt lat="36.7282530" lon="-4.4887610">
        <ele>69.4</ele>
        <time>2019-09-05T20:20:02Z</time>
      </trkpt>
      <trkpt lat="36.7282910" lon="-4.4887750">
        <ele>69.6</ele>
        <time>2019-09-05T20:20:05Z</time>
      </trkpt>
      <trkpt lat="36.7283220" lon="-4.4887840">
        <ele>69.7</ele>
        <time>2019-09-05T20:20:07Z</time>
      </trkpt>
      <trkpt lat="36.7283560" lon="-4.4887930">
        <ele>69.9</ele>
        <time>2019-09-05T20:20:10Z</time>
      </trkpt>
      <trkpt lat="36.7283870" lon="-4.4888040">
        <ele>70.0</ele>
        <time>2019-09-05T20:20:12Z</time>
      </trkpt>
      <trkpt lat="36.7284210" lon="-4.4888100">
        <ele>70.2</ele>
        <time>2019-09-05T20:20:15Z</time>
      </trkpt>
      <trkpt lat="36.7284570" lon="-4.4888170">
        <ele>70.3</ele>
        <time>2019-09-05T20:20:19Z</time>
      </trkpt>
      <trkpt lat="36.7284860" lon="-4.4888220">
        <ele>70.5</ele>
        <time>2019-09-05T20:20:21Z</time>
      </trkpt>
      <trkpt lat="36.7285220" lon="-4.4888330">
        <ele>70.6</ele>
        <time>2019-09-05T20:20:24Z</time>
      </trkpt>
      <trkpt lat="36.7285490" lon="-4.4888400">
        <ele>70.7</ele>
        <time>2019-09-05T20:20:27Z</time>
      </trkpt>
      <trkpt lat="36.7285780" lon="-4.4888410">
        <ele>70.9</ele>
        <time>2019-09-05T20:20:29Z</time>
      </trkpt>
      <trkpt lat="36.7286070" lon="-4.4888420">
        <ele>71.0</ele>
        <time>2019-09-05T20:20:31Z</time>
      </trkpt>
      <trkpt lat="36.7286460" lon="-4.4888540">
        <ele>71.1</ele>
        <time>2019-09-05T20:20:34Z</time>
      </trkpt>
      <trkpt lat="36.7286730" lon="-4.4888650">
        <ele>71.3</ele>
        <time>2019-09-05T20:20:36Z</time>
      </trkpt>
      <trkpt lat="36.7287020" lon="-4.4888740">
        <ele>71.4</ele>
        <time>2019-09-05T20:20:38Z</time>
      </trkpt>
      <trkpt lat="36.7287300" lon="-4.4888780">
        <ele>71.5</ele>
        <time>2019-09-05T20:20:41Z</time>
      </trkpt>
      <trkpt lat="36.7287630" lon="-4.4888820">
        <ele>71.7</ele>
        <time>2019-09-05T20:20:44Z</time>
      </trkpt>
      <trkpt lat="36.7287970" lon="-4.4888870">
        <ele>71.8</ele>
        <time>2019-09-05T20:20:47Z</time>
      </trkpt>
      <trkpt lat="36.7288290" lon="-4.4888930">
        <ele>72.0</ele>
        <time>2019-09-05T20:20:50Z</time>
      </trkpt>
      <trkpt lat="36.7288560" lon="-4.4888990">
        <ele>72.1</ele>
        <time>2019-09-05T20:20:52Z</time>
      </trkpt>
      <trkpt lat="36.7288900" lon="-4.4889040">
        <ele>72.3</ele>
        <time>2019-09-05T20:20:54Z</time>
      </trkpt>
      <trkpt lat="36.7289270" lon="-4.4889040">
        <ele>72.5</ele>
        <time>2019-09-05T20:20:57Z</time>
      </trkpt>
      <trkpt lat="36.7289620" lon="-4.4889040">
        <ele>72.7</ele>
        <time>2019-09-05T20:21:00Z</time>
      </trkpt>
      <trkpt lat="36.7289940" lon="-4.4889060">
        <ele>72.8</ele>
        <time>2019-09-05T20:21:03Z</time>
      </trkpt>
      <trkpt lat="36.7290400" lon="-4.4888980">
        <ele>73.1</ele>
        <time>2019-09-05T20:21:06Z</time>
      </trkpt>
      <trkpt lat="36.7290750" lon="-4.4888950">
        <ele>73.3</ele>
        <time>2019-09-05T20:21:08Z</time>
      </trkpt>
      <trkpt lat="36.7291100" lon="-4.4889040">
        <ele>73.5</ele>
        <time>2019-09-05T20:21:11Z</time>
      </trkpt>
      <trkpt lat="36.7291490" lon="-4.4889080">
        <ele>73.8</ele>
        <time>2019-09-05T20:21:14Z</time>
      </trkpt>
      <trkpt lat="36.7291770" lon="-4.4889120">
        <ele>74.0</ele>
        <time>2019-09-05T20:21:16Z</time>
      </trkpt>
      <trkpt lat="36.7292160" lon="-4.4889260">
        <ele>74.2</ele>
        <time>2019-09-05T20:21:19Z</time>
      </trkpt>
      <trkpt lat="36.7292440" lon="-4.4889350">
        <ele>74.4</ele>
        <time>2019-09-05T20:21:21Z</time>
      </trkpt>
      <trkpt lat="36.7292790" lon="-4.4889440">
        <ele>74.6</ele>
        <time>2019-09-05T20:21:24Z</time>
      </trkpt>
      <trkpt lat="36.7293150" lon="-4.4889510">
        <ele>74.8</ele>
        <time>2019-09-05T20:21:27Z</time>
      </trkpt>
      <trkpt lat="36.7293470" lon="-4.4889510">
        <ele>75.0</ele>
        <time>2019-09-05T20:21:31Z</time>
      </trkpt>
      <trkpt lat="36.7293830" lon="-4.4889500">
        <ele>75.2</ele>
        <time>2019-09-05T20:21:34Z</time>
      </trkpt>
      <trkpt lat="36.7294200" lon="-4.4889530">
        <ele>75.4</ele>
        <time>2019-09-05T20:21:37Z</time>
      </trkpt>
      <trkpt lat="36.7294570" lon="-4.4889640">
        <ele>75.6</ele>
        <time>2019-09-05T20:21:40Z</time>
      </trkpt>
      <trkpt lat="36.7294870" lon="-4.4889670">
        <ele>75.8</ele>
        <time>2019-09-05T20:21:42Z</time>
      </trkpt>
      <trkpt lat="36.7295150" lon="-4.4889620">
        <ele>75.9</ele>
        <time>2019-09-05T20:21:44Z</time>
      </trkpt>
      <trkpt lat="36.7295450" lon="-4.4889590">
        <ele>76.1</ele>
        <time>2019-09-05T20:21:47Z</time>
      </trkpt>
      <trkpt lat="36.7295800" lon="-4.4889660">
        <ele>76.2</ele>
        <time>2019-09-05T20:21:50Z</time>
      </trkpt>
      <trkpt lat="36.7296070" lon="-4.4889680">
        <ele>76.3</ele>
        <time>2019-09-05T20:21:53Z</time>
      </trkpt>
      <trkpt lat="36.7296360" lon="-4.4889720">
        <ele>76.4</ele>
        <time>2019-09-05T20:21:56Z</time>
      </trkpt>
      <trkpt lat="36.7296650" lon="-4.4889730">
        <ele>76.6</ele>
        <time>2019-09-05T20:21:59Z</time>
      </trkpt>
      <trkpt lat="36.7296950" lon="-4.4889750">
        <ele>76.7</ele>
        <time>2019-09-05T20:22:02Z</time>
      </trkpt>
      <trkpt lat="36.7297230" lon="-4.4889810">
        <ele>76.8</ele>
        <time>2019-09-05T20:22:05Z</time>
      </trkpt>
      <trkpt lat="36.7297540" lon="-4.4889920">
        <ele>76.9</ele>
        <time>2019-09-05T20:22:08Z</time>
      </trkpt>
      <trkpt lat="36.7297820" lon="-4.4889980">
        <ele>77.0</ele>
        <time>2019-09-05T20:22:11Z</time>
      </trkpt>
      <trkpt lat="36.7298150" lon="-4.4890090">
        <ele>77.1</ele>
        <time>2019-09-05T20:22:14Z</time>
      </trkpt>
      <trkpt lat="36.7298460" lon="-4.4890130">
        <ele>77.2</ele>
        <time>2019-09-05T20:22:18Z</time>
      </trkpt>
      <trkpt lat="36.7298770" lon="-4.4890250">
        <ele>77.3</ele>
        <time>2019-09-05T20:22:21Z</time>
      </trkpt>
      <trkpt lat="36.7299080" lon="-4.4890390">
        <ele>77.5</ele>
        <time>2019-09-05T20:22:23Z</time>
      </trkpt>
      <trkpt lat="36.7299380" lon="-4.4890440">
        <ele>77.6</ele>
        <time>2019-09-05T20:22:25Z</time>
      </trkpt>
      <trkpt lat="36.7299740" lon="-4.4890480">
        <ele>77.7</ele>
        <time>2019-09-05T20:22:27Z</time>
      </trkpt>
      <trkpt lat="36.7300050" lon="-4.4890500">
        <ele>77.8</ele>
        <time>2019-09-05T20:22:30Z</time>
      </trkpt>
      <trkpt lat="36.7300350" lon="-4.4890550">
        <ele>78.0</ele>
        <time>2019-09-05T20:22:33Z</time>
      </trkpt>
      <trkpt lat="36.7300720" lon="-4.4890640">
        <ele>78.1</ele>
        <time>2019-09-05T20:22:36Z</time>
      </trkpt>
      <trkpt lat="36.7301000" lon="-4.4890760">
        <ele>78.3</ele>
        <time>2019-09-05T20:22:39Z</time>
      </trkpt>
      <trkpt lat="36.7301360" lon="-4.4890760">
        <ele>78.4</ele>
        <time>2019-09-05T20:22:42Z</time>
      </trkpt>
      <trkpt lat="36.7301700" lon="-4.4890750">
        <ele>78.6</ele>
        <time>2019-09-05T20:22:45Z</time>
      </trkpt>
      <trkpt lat="36.7301980" lon="-4.4890760">
        <ele>78.8</ele>
        <time>2019-09-05T20:22:48Z</time>
      </trkpt>
      <trkpt lat="36.7302300" lon="-4.4890850">
        <ele>78.9</ele>
        <time>2019-09-05T20:22:51Z</time>
      </trkpt>
      <trkpt lat="36.7302630" lon="-4.4891020">
        <ele>79.1</ele>
        <time>2019-09-05T20:22:54Z</time>
      </trkpt>
      <trkpt lat="36.7302910" lon="-4.4891110">
        <ele>79.3</ele>
        <time>2019-09-05T20:22:57Z</time>
      </trkpt>
      <trkpt lat="36.7303220" lon="-4.4891200">
        <ele>79.5</ele>
        <time>2019-09-05T20:23:01Z</time>
      </trkpt>
      <trkpt lat="36.7303550" lon="-4.4891250">
        <ele>79.7</ele>
        <time>2019-09-05T20:23:05Z</time>
      </trkpt>
      <trkpt lat="36.7303960" lon="-4.4891290">
        <ele>80.0</ele>
        <time>2019-09-05T20:23:08Z</time>
      </trkpt>
      <trkpt lat="36.7304280" lon="-4.4891350">
        <ele>80.2</ele>
        <time>2019-09-05T20:23:11Z</time>
      </trkpt>
      <trkpt lat="36.7304620" lon="-4.4891350">
        <ele>80.4</ele>
        <time>2019-09-05T20:23:14Z</time>
      </trkpt>
      <trkpt lat="36.7305000" lon="-4.4891420">
        <ele>80.7</ele>
        <time>2019-09-05T20:23:17Z</time>
      </trkpt>
      <trkpt lat="36.7305270" lon="-4.4891480">
        <ele>80.8</ele>
        <time>2019-09-05T20:23:20Z</time>
      </trkpt>
      <trkpt lat="36.7305560" lon="-4.4891540">
        <ele>81.0</ele>
        <time>2019-09-05T20:23:23Z</time>
      </trkpt>
      <trkpt lat="36.7305930" lon="-4.4891670">
        <ele>81.3</ele>
        <time>2019-09-05T20:23:26Z</time>
      </trkpt>
      <trkpt lat="36.7306250" lon="-4.4891620">
        <ele>81.5</ele>
        <time>2019-09-05T20:23:29Z</time>
      </trkpt>
      <trkpt lat="36.7306520" lon="-4.4891680">
        <ele>81.6</ele>
        <time>2019-09-05T20:23:31Z</time>
      </trkpt>
      <trkpt lat="36.7306800" lon="-4.4891760">
        <ele>81.8</ele>
        <time>2019-09-05T20:23:33Z</time>
      </trkpt>
      <trkpt lat="36.7307130" lon="-4.4891770">
        <ele>82.0</ele>
        <time>2019-09-05T20:23:36Z</time>
      </trkpt>
      <trkpt lat="36.7307470" lon="-4.4891780">
        <ele>82.2</ele>
        <time>2019-09-05T20:23:39Z</time>
      </trkpt>
      <trkpt lat="36.7307730" lon="-4.4891920">
        <ele>82.4</ele>
        <time>2019-09-05T20:23:41Z</time>
      </trkpt>
      <trkpt lat="36.7308030" lon="-4.4891990">
        <ele>82.5</ele>
        <time>2019-09-05T20:23:45Z</time>
      </trkpt>
      <trkpt lat="36.7308420" lon="-4.4892050">
        <ele>82.7</ele>
        <time>2019-09-05T20:23:48Z</time>
      </trkpt>
      <trkpt lat="36.7308700" lon="-4.4892120">
        <ele>82.9</ele>
        <time>2019-09-05T20:23:50Z</time>
      </trkpt>
      <trkpt lat="36.7308990" lon="-4.4892230">
        <ele>83.0</ele>
        <time>2019-09-05T20:23:52Z</time>
      </trkpt>
      <trkpt lat="36.7309360" lon="-4.4892320">
        <ele>83.2</ele>
        <time>2019-09-05T20:23:55Z</time>
      </trkpt>
      <trkpt lat="36.7309760" lon="-4.4892380">
        <ele>83.4</ele>
        <time>2019-09-05T20:23:59Z</time>
      </trkpt>
      <trkpt lat="36.7310040" lon="-4.4892420">
        <ele>83.5</ele>
        <time>2019-09-05T20:24:01Z</time>
      </trkpt>
      <trkpt lat="36.7310340" lon="-4.4892440">
        <ele>83.6</ele>
        <time>2019-09-05T20:24:04Z</time>
      </trkpt>
      <trkpt lat="36.7310670" lon="-4.4892560">
        <ele>83.7</ele>
        <time>2019-09-05T20:24:08Z</time>
      </trkpt>
      <trkpt lat="36.7310950" lon="-4.4892620">
        <ele>83.8</ele>
        <time>2019-09-05T20:24:10Z</time>
      </trkpt>
      <trkpt lat="36.7311230" lon="-4.4892640">
        <ele>83.8</ele>
        <time>2019-09-05T20:24:12Z</time>
      </trkpt>
      <trkpt lat="36.7311500" lon="-4.4892730">
        <ele>83.9</ele>
        <time>2019-09-05T20:24:14Z</time>
      </trkpt>
      <trkpt lat="36.7311880" lon="-4.4892750">
        <ele>84.0</ele>
        <time>2019-09-05T20:24:18Z</time>
      </trkpt>
      <trkpt lat="36.7312240" lon="-4.4892770">
        <ele>84.0</ele>
        <time>2019-09-05T20:24:21Z</time>
      </trkpt>
      <trkpt lat="36.7312560" lon="-4.4892840">
        <ele>84.0</ele>
        <time>2019-09-05T20:24:23Z</time>
      </trkpt>
      <trkpt lat="36.7312830" lon="-4.4892910">
        <ele>84.1</ele>
        <time>2019-09-05T20:24:26Z</time>
      </trkpt>
      <trkpt lat="36.7313160" lon="-4.4893070">
        <ele>84.1</ele>
        <time>2019-09-05T20:24:29Z</time>
      </trkpt>
      <trkpt lat="36.7313480" lon="-4.4893220">
        <ele>84.1</ele>
        <time>2019-09-05T20:24:33Z</time>
      </trkpt>
      <trkpt lat="36.7313880" lon="-4.4893290">
        <ele>84.1</ele>
        <time>2019-09-05T20:24:36Z</time>
      </trkpt>
      <trkpt lat="36.7314210" lon="-4.4893280">
        <ele>84.2</ele>
        <time>2019-09-05T20:24:39Z</time>
      </trkpt>
      <trkpt lat="36.7314490" lon="-4.4893360">
        <ele>84.2</ele>
        <time>2019-09-05T20:24:45Z</time>
      </trkpt>
      <trkpt lat="36.7314760" lon="-4.4893360">
        <ele>84.2</ele>
        <time>2019-09-05T20:24:48Z</time>
      </trkpt>
      <trkpt lat="36.7315070" lon="-4.4893390">
        <ele>84.2</ele>
        <time>2019-09-05T20:24:51Z</time>
      </trkpt>
      <trkpt lat="36.7315460" lon="-4.4893440">
        <ele>84.2</ele>
        <time>2019-09-05T20:24:56Z</time>
      </trkpt>
      <trkpt lat="36.7315760" lon="-4.4893530">
        <ele>84.2</ele>
        <time>2019-09-05T20:24:58Z</time>
      </trkpt>
      <trkpt lat="36.7316030" lon="-4.4893520">
        <ele>84.2</ele>
        <time>2019-09-05T20:25:00Z</time>
      </trkpt>
      <trkpt lat="36.7316310" lon="-4.4893660">
        <ele>84.2</ele>
        <time>2019-09-05T20:25:03Z</time>
      </trkpt>
      <trkpt lat="36.7316680" lon="-4.4893750">
        <ele>84.2</ele>
        <time>2019-09-05T20:25:06Z</time>
      </trkpt>
      <trkpt lat="36.7316960" lon="-4.4893880">
        <ele>84.2</ele>
        <time>2019-09-05T20:25:09Z</time>
      </trkpt>
      <trkpt lat="36.7317270" lon="-4.4893940">
        <ele>84.2</ele>
        <time>2019-09-05T20:25:13Z</time>
      </trkpt>
      <trkpt lat="36.7317630" lon="-4.4893950">
        <ele>84.2</ele>
        <time>2019-09-05T20:25:16Z</time>
      </trkpt>
      <trkpt lat="36.7317970" lon="-4.4894120">
        <ele>84.1</ele>
        <time>2019-09-05T20:25:20Z</time>
      </trkpt>
      <trkpt lat="36.7318270" lon="-4.4894250">
        <ele>84.1</ele>
        <time>2019-09-05T20:25:22Z</time>
      </trkpt>
      <trkpt lat="36.7318570" lon="-4.4894280">
        <ele>84.1</ele>
        <time>2019-09-05T20:25:25Z</time>
      </trkpt>
      <trkpt lat="36.7318850" lon="-4.4894220">
        <ele>84.1</ele>
        <time>2019-09-05T20:25:29Z</time>
      </trkpt>
      <trkpt lat="36.7319140" lon="-4.4894260">
        <ele>84.1</ele>
        <time>2019-09-05T20:25:31Z</time>
      </trkpt>
      <trkpt lat="36.7319410" lon="-4.4894310">
        <ele>84.0</ele>
        <time>2019-09-05T20:25:33Z</time>
      </trkpt>
      <trkpt lat="36.7319710" lon="-4.4894350">
        <ele>84.0</ele>
        <time>2019-09-05T20:25:35Z</time>
      </trkpt>
      <trkpt lat="36.7320090" lon="-4.4894360">
        <ele>83.9</ele>
        <time>2019-09-05T20:25:37Z</time>
      </trkpt>
      <trkpt lat="36.7320450" lon="-4.4894390">
        <ele>83.9</ele>
        <time>2019-09-05T20:25:39Z</time>
      </trkpt>
      <trkpt lat="36.7320780" lon="-4.4894420">
        <ele>83.8</ele>
        <time>2019-09-05T20:25:42Z</time>
      </trkpt>
      <trkpt lat="36.7321120" lon="-4.4894600">
        <ele>83.7</ele>
        <time>2019-09-05T20:25:47Z</time>
      </trkpt>
      <trkpt lat="36.7321310" lon="-4.4894870">
        <ele>83.7</ele>
        <time>2019-09-05T20:25:50Z</time>
      </trkpt>
      <trkpt lat="36.7321490" lon="-4.4895260">
        <ele>83.6</ele>
        <time>2019-09-05T20:25:54Z</time>
      </trkpt>
      <trkpt lat="36.7321640" lon="-4.4895550">
        <ele>83.4</ele>
        <time>2019-09-05T20:25:56Z</time>
      </trkpt>
      <trkpt lat="36.7321840" lon="-4.4895930">
        <ele>83.4</ele>
        <time>2019-09-05T20:25:58Z</time>
      </trkpt>
      <trkpt lat="36.7322020" lon="-4.4896290">
        <ele>83.4</ele>
        <time>2019-09-05T20:26:00Z</time>
      </trkpt>
      <trkpt lat="36.7322210" lon="-4.4896650">
        <ele>82.4</ele>
        <time>2019-09-05T20:26:03Z</time>
      </trkpt>
      <trkpt lat="36.7322400" lon="-4.4896960">
        <ele>82.2</ele>
        <time>2019-09-05T20:26:06Z</time>
      </trkpt>
      <trkpt lat="36.7322570" lon="-4.4897260">
        <ele>82.1</ele>
        <time>2019-09-05T20:26:08Z</time>
      </trkpt>
      <trkpt lat="36.7322770" lon="-4.4897580">
        <ele>81.9</ele>
        <time>2019-09-05T20:26:10Z</time>
      </trkpt>
      <trkpt lat="36.7322930" lon="-4.4897930">
        <ele>81.7</ele>
        <time>2019-09-05T20:26:14Z</time>
      </trkpt>
      <trkpt lat="36.7323240" lon="-4.4898140">
        <ele>81.6</ele>
        <time>2019-09-05T20:26:17Z</time>
      </trkpt>
      <trkpt lat="36.7323480" lon="-4.4898300">
        <ele>81.4</ele>
        <time>2019-09-05T20:26:19Z</time>
      </trkpt>
      <trkpt lat="36.7323540" lon="-4.4898720">
        <ele>81.3</ele>
        <time>2019-09-05T20:26:23Z</time>
      </trkpt>
      <trkpt lat="36.7323280" lon="-4.4899030">
        <ele>81.1</ele>
        <time>2019-09-05T20:26:26Z</time>
      </trkpt>
      <trkpt lat="36.7323200" lon="-4.4899400">
        <ele>81.1</ele>
        <time>2019-09-05T20:26:29Z</time>
      </trkpt>
      <trkpt lat="36.7323210" lon="-4.4899740">
        <ele>81.1</ele>
        <time>2019-09-05T20:26:31Z</time>
      </trkpt>
      <trkpt lat="36.7323130" lon="-4.4900300">
        <ele>81.1</ele>
        <time>2019-09-05T20:26:34Z</time>
      </trkpt>
      <trkpt lat="36.7323070" lon="-4.4900640">
        <ele>81.1</ele>
        <time>2019-09-05T20:26:36Z</time>
      </trkpt>
      <trkpt lat="36.7323030" lon="-4.4901010">
        <ele>81.1</ele>
        <time>2019-09-05T20:26:38Z</time>
      </trkpt>
      <trkpt lat="36.7322920" lon="-4.4901390">
        <ele>81.0</ele>
        <time>2019-09-05T20:26:41Z</time>
      </trkpt>
      <trkpt lat="36.7322870" lon="-4.4901790">
        <ele>81.0</ele>
        <time>2019-09-05T20:26:43Z</time>
      </trkpt>
      <trkpt lat="36.7322950" lon="-4.4902150">
        <ele>81.0</ele>
        <time>2019-09-05T20:26:45Z</time>
      </trkpt>
      <trkpt lat="36.7322840" lon="-4.4902540">
        <ele>81.0</ele>
        <time>2019-09-05T20:26:47Z</time>
      </trkpt>
      <trkpt lat="36.7322560" lon="-4.4902920">
        <ele>81.0</ele>
        <time>2019-09-05T20:26:49Z</time>
      </trkpt>
      <trkpt lat="36.7322250" lon="-4.4903140">
        <ele>80.9</ele>
        <time>2019-09-05T20:26:50Z</time>
      </trkpt>
      <trkpt lat="36.7321830" lon="-4.4903560">
        <ele>80.8</ele>
        <time>2019-09-05T20:26:52Z</time>
      </trkpt>
      <trkpt lat="36.7321800" lon="-4.4903930">
        <ele>80.8</ele>
        <time>2019-09-05T20:26:54Z</time>
      </trkpt>
      <trkpt lat="36.7322120" lon="-4.4904140">
        <ele>80.9</ele>
        <time>2019-09-05T20:26:56Z</time>
      </trkpt>
      <trkpt lat="36.7322380" lon="-4.4904380">
        <ele>80.9</ele>
        <time>2019-09-05T20:26:59Z</time>
      </trkpt>
      <trkpt lat="36.7322700" lon="-4.4904700">
        <ele>81.0</ele>
        <time>2019-09-05T20:27:01Z</time>
      </trkpt>
      <trkpt lat="36.7323060" lon="-4.4904820">
        <ele>81.1</ele>
        <time>2019-09-05T20:27:03Z</time>
      </trkpt>
      <trkpt lat="36.7323410" lon="-4.4905070">
        <ele>81.2</ele>
        <time>2019-09-05T20:27:05Z</time>
      </trkpt>
      <trkpt lat="36.7323710" lon="-4.4905210">
        <ele>81.2</ele>
        <time>2019-09-05T20:27:07Z</time>
      </trkpt>
      <trkpt lat="36.7323990" lon="-4.4905390">
        <ele>81.3</ele>
        <time>2019-09-05T20:27:09Z</time>
      </trkpt>
      <trkpt lat="36.7324290" lon="-4.4905570">
        <ele>81.4</ele>
        <time>2019-09-05T20:27:11Z</time>
      </trkpt>
      <trkpt lat="36.7324380" lon="-4.4906010">
        <ele>81.3</ele>
        <time>2019-09-05T20:27:13Z</time>
      </trkpt>
      <trkpt lat="36.7324810" lon="-4.4905860">
        <ele>81.4</ele>
        <time>2019-09-05T20:27:15Z</time>
      </trkpt>
      <trkpt lat="36.7325140" lon="-4.4905830">
        <ele>81.4</ele>
        <time>2019-09-05T20:27:17Z</time>
      </trkpt>
      <trkpt lat="36.7325480" lon="-4.4905950">
        <ele>81.5</ele>
        <time>2019-09-05T20:27:20Z</time>
      </trkpt>
      <trkpt lat="36.7325730" lon="-4.4906110">
        <ele>81.5</ele>
        <time>2019-09-05T20:27:22Z</time>
      </trkpt>
      <trkpt lat="36.7326030" lon="-4.4906240">
        <ele>81.4</ele>
        <time>2019-09-05T20:27:25Z</time>
      </trkpt>
      <trkpt lat="36.7326410" lon="-4.4906400">
        <ele>81.4</ele>
        <time>2019-09-05T20:27:28Z</time>
      </trkpt>
      <trkpt lat="36.7326690" lon="-4.4906580">
        <ele>81.4</ele>
        <time>2019-09-05T20:27:30Z</time>
      </trkpt>
      <trkpt lat="36.7326970" lon="-4.4906770">
        <ele>81.3</ele>
        <time>2019-09-05T20:27:33Z</time>
      </trkpt>
      <trkpt lat="36.7327210" lon="-4.4906970">
        <ele>81.3</ele>
        <time>2019-09-05T20:27:42Z</time>
      </trkpt>
    </trkseg>
  </trk>
</gpx>
